Observation data for Segovia 7SSW on 08/13/2019      Previous  Date  Next       Current Mesonet Observations  Soil Data  Daily Summary Page  Observations in Plain Language
KSE2 130500Z 16005KT 27/17 A2996 RMK A01 T02670172  RH  056%=      5-min Rain = 0
KSE2 130501Z 16006KT 27/17 A2996 RMK A01 T02670172  RH  056%=      5-min Rain = 0
KSE2 130502Z 16005KT 27/17 A2996 RMK A01 T02670173  RH  056%=      5-min Rain = 0
KSE2 130503Z 16005KT 27/17 A2996 RMK A01 T02670173  RH  056%=      5-min Rain = 0
KSE2 130504Z 16006KT 27/17 A2996 RMK A01 T02670173  RH  056%=      5-min Rain = 0
KSE2 130505Z 15006KT 27/17 A2996 RMK A01 T02670173  RH  056%=      5-min Rain = 0
KSE2 130506Z 15006KT 27/17 A2996 RMK A01 T02660173  RH  056%=      5-min Rain = 0
KSE2 130507Z 15007KT 27/17 A2996 RMK A01 T02680174  RH  057%=      5-min Rain = 0
KSE2 130508Z 15008KT 27/18 A2996 RMK A01 T02690175  RH  057%=      5-min Rain = 0
KSE2 130509Z 14007KT 27/18 A2996 RMK A01 T02700176  RH  056%=      5-min Rain = 0
KSE2 130510Z 14006KT 27/18 A2996 RMK A01 T02700175  RH  056%=      5-min Rain = 0
KSE2 130511Z 15006KT 27/18 A2996 RMK A01 T02700175  RH  056%=      5-min Rain = 0
KSE2 130512Z 15007KT 27/18 A2996 RMK A01 T02700176  RH  056%=      5-min Rain = 0
KSE2 130513Z 14006KT 27/18 A2996 RMK A01 T02700176  RH  056%=      5-min Rain = 0
KSE2 130514Z 15007KT 27/18 A2996 RMK A01 T02700176  RH  057%=      5-min Rain = 0
KSE2 130515Z 15006KT 27/18 A2996 RMK A01 T02700177  RH  057%=      5-min Rain = 0
KSE2 130516Z 15006KT 27/18 A2996 RMK A01 T02700177  RH  057%=      5-min Rain = 0
KSE2 130517Z 15006KT 27/18 A2996 RMK A01 T02710178  RH  057%=      5-min Rain = 0
KSE2 130518Z 15007KT 27/18 A2996 RMK A01 T02710178  RH  057%=      5-min Rain = 0
KSE2 130519Z 14006KT 27/18 A2997 RMK A01 T02710179  RH  057%=      5-min Rain = 0
KSE2 130520Z 15007KT 27/18 A2997 RMK A01 T02720180  RH  057%=      5-min Rain = 0
KSE2 130521Z 15007KT 27/18 A2997 RMK A01 T02720180  RH  057%=      5-min Rain = 0
KSE2 130522Z 14006KT 27/18 A2997 RMK A01 T02730181  RH  057%=      5-min Rain = 0
KSE2 130523Z 15006KT 27/18 A2997 RMK A01 T02730180  RH  057%=      5-min Rain = 0
KSE2 130524Z 15007KT 27/18 A2997 RMK A01 T02730181  RH  057%=      5-min Rain = 0
KSE2 130525Z 15008KT 27/18 A2997 RMK A01 T02730182  RH  058%=      5-min Rain = 0
KSE2 130526Z 15007KT 27/18 A2997 RMK A01 T02740183  RH  058%=      5-min Rain = 0
KSE2 130527Z 15007KT 27/18 A2997 RMK A01 T02740183  RH  058%=      5-min Rain = 0
KSE2 130528Z 16008KT 27/18 A2997 RMK A01 T02740184  RH  058%=      5-min Rain = 0
KSE2 130529Z 15008KT 27/19 A2997 RMK A01 T02740185  RH  058%=      5-min Rain = 0
KSE2 130530Z 16007KT 28/19 A2996 RMK A01 T02750186  RH  058%=      5-min Rain = 0
KSE2 130531Z 15007KT 28/19 A2996 RMK A01 T02750186  RH  058%=      5-min Rain = 0
KSE2 130532Z 15009KT 28/19 A2996 RMK A01 T02750188  RH  059%=      5-min Rain = 0
KSE2 130533Z 15008KT 28/19 A2997 RMK A01 T02760189  RH  059%=      5-min Rain = 0
KSE2 130534Z 15008KT 28/19 A2997 RMK A01 T02760189  RH  059%=      5-min Rain = 0
KSE2 130535Z 15009KT 28/19 A2997 RMK A01 T02760191  RH  060%=      5-min Rain = 0
KSE2 130536Z 15008KT 28/19 A2997 RMK A01 T02760191  RH  060%=      5-min Rain = 0
KSE2 130537Z 14009KT 28/19 A2997 RMK A01 T02760191  RH  060%=      5-min Rain = 0
KSE2 130538Z 14007KT 28/19 A2997 RMK A01 T02760192  RH  060%=      5-min Rain = 0
KSE2 130539Z 15007KT 28/19 A2997 RMK A01 T02770193  RH  060%=      5-min Rain = 0
KSE2 130540Z 14009KT 28/19 A2997 RMK A01 T02760193  RH  060%=      5-min Rain = 0
KSE2 130541Z 14007KT 28/19 A2997 RMK A01 T02760193  RH  060%=      5-min Rain = 0
KSE2 130542Z 14008KT 28/19 A2997 RMK A01 T02770193  RH  060%=      5-min Rain = 0
KSE2 130543Z 15008KT 28/19 A2996 RMK A01 T02760193  RH  061%=      5-min Rain = 0
KSE2 130544Z 14007KT 28/19 A2997 RMK A01 T02760194  RH  061%=      5-min Rain = 0
KSE2 130545Z 15006KT 28/19 A2997 RMK A01 T02760193  RH  061%=      5-min Rain = 0
KSE2 130546Z 15009KT 28/19 A2997 RMK A01 T02760194  RH  061%=      5-min Rain = 0
KSE2 130547Z 15008KT 28/20 A2997 RMK A01 T02750195  RH  062%=      5-min Rain = 0
KSE2 130548Z 15008KT 28/20 A2997 RMK A01 T02750195  RH  062%=      5-min Rain = 0
KSE2 130549Z 15006KT 28/20 A2997 RMK A01 T02750195  RH  062%=      5-min Rain = 0
KSE2 130550Z 15007KT 28/20 A2997 RMK A01 T02750195  RH  062%=      5-min Rain = 0
KSE2 130551Z 15007KT 28/20 A2997 RMK A01 T02750195  RH  062%=      5-min Rain = 0
KSE2 130552Z 15007KT 27/20 A2997 RMK A01 T02740195  RH  062%=      5-min Rain = 0
KSE2 130553Z 14007KT 27/20 A2997 RMK A01 T02740196  RH  062%=      5-min Rain = 0
KSE2 130554Z 15007G12KT 27/20 A2997 RMK A01 T02740196  RH  062%=      5-min Rain = 0
KSE2 130555Z 15008KT 27/20 A2997 RMK A01 T02740197  RH  063%=      5-min Rain = 0
KSE2 130556Z 15008KT 27/20 A2997 RMK A01 T02740197  RH  063%=      5-min Rain = 0
KSE2 130557Z 15007KT 27/20 A2997 RMK A01 T02740197  RH  063%=      5-min Rain = 0
KSE2 130558Z 15007KT 27/20 A2997 RMK A01 T02740197  RH  063%=      5-min Rain = 0
KSE2 130559Z 15008KT 27/20 A2997 RMK A01 T02740198  RH  063%=      5-min Rain = 0
KSE2 130600Z 14008KT 27/20 A2997 RMK A01 T02740198  RH  063%=      5-min Rain = 0
KSE2 130601Z 14009KT 27/20 A2997 RMK A01 T02740199  RH  063%=      5-min Rain = 0
KSE2 130602Z 15008KT 27/20 A2997 RMK A01 T02740199  RH  064%=      5-min Rain = 0
KSE2 130603Z 15006KT 27/20 A2997 RMK A01 T02740199  RH  064%=      5-min Rain = 0
KSE2 130604Z 15007KT 27/20 A2997 RMK A01 T02740199  RH  064%=      5-min Rain = 0
KSE2 130605Z 15009KT 27/20 A2997 RMK A01 T02730200  RH  064%=      5-min Rain = 0
KSE2 130606Z 15007KT 27/20 A2997 RMK A01 T02730200  RH  064%=      5-min Rain = 0
KSE2 130607Z 15006KT 27/20 A2997 RMK A01 T02730201  RH  065%=      5-min Rain = 0
KSE2 130608Z 15007KT 27/20 A2997 RMK A01 T02730202  RH  065%=      5-min Rain = 0
KSE2 130609Z 14008KT 27/20 A2997 RMK A01 T02730202  RH  065%=      5-min Rain = 0
KSE2 130610Z 15008KT 27/20 A2997 RMK A01 T02730203  RH  065%=      5-min Rain = 0
KSE2 130611Z 14007KT 27/20 A2997 RMK A01 T02730203  RH  065%=      5-min Rain = 0
KSE2 130612Z 15007KT 27/20 A2997 RMK A01 T02730203  RH  065%=      5-min Rain = 0
KSE2 130613Z 14007KT 27/20 A2997 RMK A01 T02730204  RH  066%=      5-min Rain = 0
KSE2 130614Z 15008KT 27/20 A2997 RMK A01 T02730204  RH  066%=      5-min Rain = 0
KSE2 130615Z 14007KT 27/20 A2997 RMK A01 T02720203  RH  066%=      5-min Rain = 0
KSE2 130616Z 14007KT 27/20 A2997 RMK A01 T02720204  RH  066%=      5-min Rain = 0
KSE2 130617Z 14007KT 27/20 A2997 RMK A01 T02720204  RH  066%=      5-min Rain = 0
KSE2 130618Z 15009KT 27/21 A2997 RMK A01 T02720205  RH  066%=      5-min Rain = 0
KSE2 130619Z 15009KT 27/21 A2997 RMK A01 T02720205  RH  067%=      5-min Rain = 0
KSE2 130620Z 14009KT 27/21 A2997 RMK A01 T02720205  RH  067%=      5-min Rain = 0
KSE2 130621Z 14010KT 27/21 A2997 RMK A01 T02720206  RH  067%=      5-min Rain = 0
KSE2 130622Z 14008KT 27/21 A2996 RMK A01 T02730207  RH  067%=      5-min Rain = 0
KSE2 130623Z 15008KT 27/21 A2996 RMK A01 T02730207  RH  067%=      5-min Rain = 0
KSE2 130624Z 15006KT 27/21 A2996 RMK A01 T02720207  RH  067%=      5-min Rain = 0
KSE2 130625Z 15007KT 27/21 A2996 RMK A01 T02710207  RH  068%=      5-min Rain = 0
KSE2 130626Z 16006KT 27/21 A2996 RMK A01 T02710207  RH  068%=      5-min Rain = 0
KSE2 130627Z 15008KT 27/21 A2996 RMK A01 T02710208  RH  068%=      5-min Rain = 0
KSE2 130628Z 15009KT 27/21 A2996 RMK A01 T02710209  RH  069%=      5-min Rain = 0
KSE2 130629Z 15008KT 27/21 A2996 RMK A01 T02710209  RH  069%=      5-min Rain = 0
KSE2 130630Z 15008KT 27/21 A2996 RMK A01 T02710209  RH  069%=      5-min Rain = 0
KSE2 130631Z 15006KT 27/21 A2996 RMK A01 T02720210  RH  069%=      5-min Rain = 0
KSE2 130632Z 15008KT 27/21 A2997 RMK A01 T02720210  RH  069%=      5-min Rain = 0
KSE2 130633Z 15007KT 27/21 A2997 RMK A01 T02710210  RH  069%=      5-min Rain = 0
KSE2 130634Z 14008KT 27/21 A2997 RMK A01 T02710210  RH  069%=      5-min Rain = 0
KSE2 130635Z 14009KT 27/21 A2996 RMK A01 T02710211  RH  070%=      5-min Rain = 0
KSE2 130636Z 15009KT 27/21 A2996 RMK A01 T02710212  RH  070%=      5-min Rain = 0
KSE2 130637Z 15008KT 27/21 A2996 RMK A01 T02710212  RH  070%=      5-min Rain = 0
KSE2 130638Z 15008KT 27/21 A2996 RMK A01 T02710212  RH  070%=      5-min Rain = 0
KSE2 130639Z 14008KT 27/21 A2997 RMK A01 T02710213  RH  070%=      5-min Rain = 0
KSE2 130640Z 15008KT 27/21 A2996 RMK A01 T02710213  RH  071%=      5-min Rain = 0
KSE2 130641Z 15009KT 27/21 A2997 RMK A01 T02710213  RH  071%=      5-min Rain = 0
KSE2 130642Z 15009KT 27/21 A2996 RMK A01 T02700214  RH  071%=      5-min Rain = 0
KSE2 130643Z 16009KT 27/21 A2997 RMK A01 T02700214  RH  071%=      5-min Rain = 0
KSE2 130644Z 16008KT 27/22 A2997 RMK A01 T02710215  RH  071%=      5-min Rain = 0
KSE2 130645Z 15009KT 27/22 A2997 RMK A01 T02710215  RH  071%=      5-min Rain = 0
KSE2 130646Z 15008KT 27/22 A2997 RMK A01 T02710215  RH  072%=      5-min Rain = 0
KSE2 130647Z 15008KT 27/22 A2996 RMK A01 T02710215  RH  072%=      5-min Rain = 0
KSE2 130648Z 15009KT 27/22 A2997 RMK A01 T02700215  RH  072%=      5-min Rain = 0
KSE2 130649Z 15008KT 27/22 A2996 RMK A01 T02710216  RH  072%=      5-min Rain = 0
KSE2 130650Z 14007KT 27/22 A2996 RMK A01 T02710216  RH  072%=      5-min Rain = 0
KSE2 130651Z 15008KT 27/22 A2996 RMK A01 T02710217  RH  072%=      5-min Rain = 0
KSE2 130652Z 15008KT 27/22 A2996 RMK A01 T02700217  RH  073%=      5-min Rain = 0
KSE2 130653Z 16009G14KT 27/22 A2996 RMK A01 T02700217  RH  073%=      5-min Rain = 0
KSE2 130654Z 16008KT 27/22 A2996 RMK A01 T02700218  RH  073%=      5-min Rain = 0
KSE2 130655Z 15009KT 27/22 A2996 RMK A01 T02710218  RH  073%=      5-min Rain = 0
KSE2 130656Z 15007G12KT 27/22 A2996 RMK A01 T02710217  RH  073%=      5-min Rain = 0
KSE2 130657Z 16007KT 27/22 A2996 RMK A01 T02700218  RH  073%=      5-min Rain = 0
KSE2 130658Z 16009KT 27/22 A2996 RMK A01 T02700218  RH  073%=      5-min Rain = 0
KSE2 130659Z 16010KT 27/22 A2996 RMK A01 T02700218  RH  073%=      5-min Rain = 0
KSE2 130700Z 16009KT 27/22 A2996 RMK A01 T02700218  RH  073%=      5-min Rain = 0
KSE2 130701Z 16008KT 27/22 A2996 RMK A01 T02700218  RH  073%=      5-min Rain = 0
KSE2 130702Z 16008G13KT 27/22 A2996 RMK A01 T02700218  RH  073%=      5-min Rain = 0
KSE2 130703Z 16010KT 27/22 A2996 RMK A01 T02700219  RH  074%=      5-min Rain = 0
KSE2 130704Z 15008KT 27/22 A2996 RMK A01 T02700219  RH  074%=      5-min Rain = 0
KSE2 130705Z 15007KT 27/22 A2996 RMK A01 T02700219  RH  074%=      5-min Rain = 0
KSE2 130706Z 16008KT 27/22 A2996 RMK A01 T02690219  RH  074%=      5-min Rain = 0
KSE2 130707Z 16008KT 27/22 A2996 RMK A01 T02690219  RH  074%=      5-min Rain = 0
KSE2 130708Z 16007KT 27/22 A2996 RMK A01 T02690219  RH  074%=      5-min Rain = 0
KSE2 130709Z 16007KT 27/22 A2996 RMK A01 T02680219  RH  074%=      5-min Rain = 0
KSE2 130710Z 16007KT 27/22 A2996 RMK A01 T02680219  RH  074%=      5-min Rain = 0
KSE2 130711Z 16007KT 27/22 A2996 RMK A01 T02680219  RH  075%=      5-min Rain = 0
KSE2 130712Z 16009KT 27/22 A2996 RMK A01 T02680219  RH  075%=      5-min Rain = 0
KSE2 130713Z 17009KT 27/22 A2996 RMK A01 T02680220  RH  075%=      5-min Rain = 0
KSE2 130714Z 16009KT 27/22 A2996 RMK A01 T02680220  RH  075%=      5-min Rain = 0
KSE2 130715Z 16008KT 27/22 A2996 RMK A01 T02680220  RH  075%=      5-min Rain = 0
KSE2 130716Z 16007KT 27/22 A2996 RMK A01 T02680220  RH  075%=      5-min Rain = 0
KSE2 130717Z 16007KT 27/22 A2996 RMK A01 T02680220  RH  075%=      5-min Rain = 0
KSE2 130718Z 16009KT 27/22 A2996 RMK A01 T02680220  RH  075%=      5-min Rain = 0
KSE2 130719Z 16008G13KT 27/22 A2996 RMK A01 T02670220  RH  075%=      5-min Rain = 0
KSE2 130720Z 16010KT 27/22 A2996 RMK A01 T02670220  RH  075%=      5-min Rain = 0
KSE2 130721Z 16010KT 27/22 A2996 RMK A01 T02670220  RH  075%=      5-min Rain = 0
KSE2 130722Z 16009KT 27/22 A2996 RMK A01 T02670220  RH  075%=      5-min Rain = 0
KSE2 130723Z 16008KT 27/22 A2996 RMK A01 T02670220  RH  075%=      5-min Rain = 0
KSE2 130724Z 15008KT 27/22 A2996 RMK A01 T02670220  RH  075%=      5-min Rain = 0
KSE2 130725Z 15012KT 27/22 A2996 RMK A01 T02670221  RH  076%=      5-min Rain = 0
KSE2 130726Z 15009KT 27/22 A2996 RMK A01 T02670221  RH  076%=      5-min Rain = 0
KSE2 130727Z 16009KT 27/22 A2996 RMK A01 T02670220  RH  075%=      5-min Rain = 0
KSE2 130728Z 16009KT 27/22 A2996 RMK A01 T02680221  RH  075%=      5-min Rain = 0
KSE2 130729Z 16011KT 27/22 A2996 RMK A01 T02670221  RH  076%=      5-min Rain = 0
KSE2 130730Z 16010KT 27/22 A2996 RMK A01 T02670221  RH  076%=      5-min Rain = 0
KSE2 130731Z 16008KT 27/22 A2996 RMK A01 T02670221  RH  076%=      5-min Rain = 0
KSE2 130732Z 16008KT 27/22 A2996 RMK A01 T02670220  RH  076%=      5-min Rain = 0
KSE2 130733Z 16010KT 27/22 A2996 RMK A01 T02670221  RH  076%=      5-min Rain = 0
KSE2 130734Z 16010KT 27/22 A2996 RMK A01 T02660220  RH  076%=      5-min Rain = 0
KSE2 130735Z 16008KT 27/22 A2996 RMK A01 T02660221  RH  076%=      5-min Rain = 0
KSE2 130736Z 15008KT 27/22 A2996 RMK A01 T02660221  RH  076%=      5-min Rain = 0
KSE2 130737Z 17009KT 27/22 A2996 RMK A01 T02660220  RH  076%=      5-min Rain = 0
KSE2 130738Z 16009KT 27/22 A2996 RMK A01 T02660221  RH  076%=      5-min Rain = 0
KSE2 130739Z 16009KT 27/22 A2996 RMK A01 T02660221  RH  076%=      5-min Rain = 0
KSE2 130740Z 16007KT 27/22 A2996 RMK A01 T02650220  RH  076%=      5-min Rain = 0
KSE2 130741Z 17007KT 27/22 A2996 RMK A01 T02650220  RH  076%=      5-min Rain = 0
KSE2 130742Z 16006KT 27/22 A2996 RMK A01 T02650220  RH  076%=      5-min Rain = 0
KSE2 130743Z 16008KT 27/22 A2996 RMK A01 T02650220  RH  077%=      5-min Rain = 0
KSE2 130744Z 16009G14KT 27/22 A2996 RMK A01 T02650221  RH  077%=      5-min Rain = 0
KSE2 130745Z 16009KT 26/22 A2996 RMK A01 T02640220  RH  077%=      5-min Rain = 0
KSE2 130746Z 16010KT 27/22 A2996 RMK A01 T02650220  RH  077%=      5-min Rain = 0
KSE2 130747Z 16009KT 27/22 A2996 RMK A01 T02650220  RH  077%=      5-min Rain = 0
KSE2 130748Z 17008KT 27/22 A2996 RMK A01 T02650220  RH  077%=      5-min Rain = 0
KSE2 130749Z 16008G13KT 27/22 A2996 RMK A01 T02650220  RH  077%=      5-min Rain = 0
KSE2 130750Z 17008KT 26/22 A2995 RMK A01 T02640220  RH  077%=      5-min Rain = 0
KSE2 130751Z 16008KT 26/22 A2995 RMK A01 T02640220  RH  077%=      5-min Rain = 0
KSE2 130752Z 16009KT 26/22 A2995 RMK A01 T02640220  RH  077%=      5-min Rain = 0
KSE2 130753Z 16011KT 26/22 A2995 RMK A01 T02640220  RH  077%=      5-min Rain = 0
KSE2 130754Z 17012KT 26/22 A2995 RMK A01 T02640220  RH  077%=      5-min Rain = 0
KSE2 130755Z 17008KT 26/22 A2995 RMK A01 T02640220  RH  077%=      5-min Rain = 0
KSE2 130756Z 15008KT 26/22 A2995 RMK A01 T02640220  RH  077%=      5-min Rain = 0
KSE2 130757Z 15007KT 26/22 A2995 RMK A01 T02630220  RH  077%=      5-min Rain = 0
KSE2 130758Z 15007KT 26/22 A2995 RMK A01 T02630220  RH  077%=      5-min Rain = 0
KSE2 130759Z 15009KT 26/22 A2995 RMK A01 T02620219  RH  077%=      5-min Rain = 0
KSE2 130800Z 16010KT 26/22 A2995 RMK A01 T02620220  RH  077%=      5-min Rain = 0
KSE2 130801Z 15006KT 26/22 A2995 RMK A01 T02620220  RH  078%=      5-min Rain = 0
KSE2 130802Z 15009KT 26/22 A2995 RMK A01 T02620220  RH  078%=      5-min Rain = 0
KSE2 130803Z 16009KT 26/22 A2995 RMK A01 T02620220  RH  078%=      5-min Rain = 0
KSE2 130804Z 16008KT 26/22 A2995 RMK A01 T02620220  RH  078%=      5-min Rain = 0
KSE2 130805Z 15006KT 26/22 A2995 RMK A01 T02620220  RH  078%=      5-min Rain = 0
KSE2 130806Z 15011KT 26/22 A2995 RMK A01 T02610219  RH  078%=      5-min Rain = 0
KSE2 130807Z 16010KT 26/22 A2995 RMK A01 T02610220  RH  078%=      5-min Rain = 0
KSE2 130808Z 15010KT 26/22 A2995 RMK A01 T02610220  RH  078%=      5-min Rain = 0
KSE2 130809Z 16010KT 26/22 A2995 RMK A01 T02610220  RH  078%=      5-min Rain = 0
KSE2 130810Z 16009KT 26/22 A2995 RMK A01 T02610220  RH  078%=      5-min Rain = 0
KSE2 130811Z 16009KT 26/22 A2995 RMK A01 T02610220  RH  078%=      5-min Rain = 0
KSE2 130812Z 16010KT 26/22 A2995 RMK A01 T02610220  RH  078%=      5-min Rain = 0
KSE2 130813Z 16010KT 26/22 A2995 RMK A01 T02610220  RH  078%=      5-min Rain = 0
KSE2 130814Z 16009G14KT 26/22 A2995 RMK A01 T02600220  RH  078%=      5-min Rain = 0
KSE2 130815Z 16008KT 26/22 A2995 RMK A01 T02600220  RH  078%=      5-min Rain = 0
KSE2 130816Z 16012KT 26/22 A2995 RMK A01 T02600220  RH  078%=      5-min Rain = 0
KSE2 130817Z 16010KT 26/22 A2995 RMK A01 T02600220  RH  078%=      5-min Rain = 0
KSE2 130818Z 15009KT 26/22 A2995 RMK A01 T02600220  RH  078%=      5-min Rain = 0
KSE2 130819Z 15009KT 26/22 A2995 RMK A01 T02600220  RH  078%=      5-min Rain = 0
KSE2 130820Z 15009KT 26/22 A2995 RMK A01 T02600220  RH  079%=      5-min Rain = 0
KSE2 130821Z 15010KT 26/22 A2995 RMK A01 T02600220  RH  079%=      5-min Rain = 0
KSE2 130822Z 15008KT 26/22 A2995 RMK A01 T02600220  RH  079%=      5-min Rain = 0
KSE2 130823Z 15010KT 26/22 A2995 RMK A01 T02600220  RH  079%=      5-min Rain = 0
KSE2 130824Z 16008KT 26/22 A2995 RMK A01 T02590220  RH  079%=      5-min Rain = 0
KSE2 130825Z 15007KT 26/22 A2995 RMK A01 T02590220  RH  079%=      5-min Rain = 0
KSE2 130826Z 15009KT 26/22 A2995 RMK A01 T02590220  RH  079%=      5-min Rain = 0
KSE2 130827Z 15008G13KT 26/22 A2995 RMK A01 T02580220  RH  079%=      5-min Rain = 0
KSE2 130828Z 15011G16KT 26/22 A2995 RMK A01 T02590220  RH  079%=      5-min Rain = 0
KSE2 130829Z 15011KT 26/22 A2995 RMK A01 T02590220  RH  079%=      5-min Rain = 0
KSE2 130830Z 15010G15KT 26/22 A2995 RMK A01 T02580220  RH  079%=      5-min Rain = 0
KSE2 130831Z 16010KT 26/22 A2995 RMK A01 T02580220  RH  079%=      5-min Rain = 0
KSE2 130832Z 15007KT 26/22 A2995 RMK A01 T02580220  RH  079%=      5-min Rain = 0
KSE2 130833Z 15008KT 26/22 A2995 RMK A01 T02580220  RH  079%=      5-min Rain = 0
KSE2 130834Z 15008KT 26/22 A2995 RMK A01 T02580220  RH  080%=      5-min Rain = 0
KSE2 130835Z 15010KT 26/22 A2995 RMK A01 T02580220  RH  080%=      5-min Rain = 0
KSE2 130836Z 15011KT 26/22 A2995 RMK A01 T02570220  RH  080%=      5-min Rain = 0
KSE2 130837Z 16009KT 26/22 A2995 RMK A01 T02570220  RH  080%=      5-min Rain = 0
KSE2 130838Z 17010KT 26/22 A2995 RMK A01 T02570220  RH  080%=      5-min Rain = 0
KSE2 130839Z 15010KT 26/22 A2995 RMK A01 T02570220  RH  080%=      5-min Rain = 0
KSE2 130840Z 16008KT 26/22 A2995 RMK A01 T02570220  RH  080%=      5-min Rain = 0
KSE2 130841Z 15007KT 26/22 A2995 RMK A01 T02570220  RH  080%=      5-min Rain = 0
KSE2 130842Z 15010KT 26/22 A2995 RMK A01 T02560220  RH  080%=      5-min Rain = 0
KSE2 130843Z 16009KT 26/22 A2995 RMK A01 T02560220  RH  080%=      5-min Rain = 0
KSE2 130844Z 16009KT 26/22 A2995 RMK A01 T02560220  RH  080%=      5-min Rain = 0
KSE2 130845Z 15010KT 26/22 A2995 RMK A01 T02560220  RH  081%=      5-min Rain = 0
KSE2 130846Z 15010KT 26/22 A2995 RMK A01 T02560220  RH  081%=      5-min Rain = 0
KSE2 130847Z 16007KT 26/22 A2995 RMK A01 T02560220  RH  081%=      5-min Rain = 0
KSE2 130848Z 15008KT 26/22 A2995 RMK A01 T02560220  RH  081%=      5-min Rain = 0
KSE2 130849Z 15008KT 26/22 A2995 RMK A01 T02550220  RH  081%=      5-min Rain = 0
KSE2 130850Z 15007G12KT 26/22 A2995 RMK A01 T02550220  RH  081%=      5-min Rain = 0
KSE2 130851Z 16012KT 26/22 A2995 RMK A01 T02550220  RH  081%=      5-min Rain = 0
KSE2 130852Z 16009KT 26/22 A2995 RMK A01 T02550220  RH  081%=      5-min Rain = 0
KSE2 130853Z 16010KT 26/22 A2995 RMK A01 T02550220  RH  081%=      5-min Rain = 0
KSE2 130854Z 16010KT 26/22 A2995 RMK A01 T02550220  RH  081%=      5-min Rain = 0
KSE2 130855Z 15008KT 26/22 A2995 RMK A01 T02550220  RH  081%=      5-min Rain = 0
KSE2 130856Z 16008KT 26/22 A2995 RMK A01 T02550220  RH  081%=      5-min Rain = 0
KSE2 130857Z 16008KT 25/22 A2995 RMK A01 T02540220  RH  081%=      5-min Rain = 0
KSE2 130858Z 16007KT 25/22 A2995 RMK A01 T02540220  RH  081%=      5-min Rain = 0
KSE2 130859Z 16008KT 25/22 A2995 RMK A01 T02540220  RH  081%=      5-min Rain = 0
KSE2 130900Z 16009KT 25/22 A2995 RMK A01 T02540220  RH  082%=      5-min Rain = 0
KSE2 130901Z 16009KT 25/22 A2995 RMK A01 T02540220  RH  082%=      5-min Rain = 0
KSE2 130902Z 16010KT 25/22 A2995 RMK A01 T02540220  RH  082%=      5-min Rain = 0
KSE2 130903Z 15007KT 25/22 A2995 RMK A01 T02540220  RH  082%=      5-min Rain = 0
KSE2 130904Z 15007KT 25/22 A2995 RMK A01 T02540220  RH  082%=      5-min Rain = 0
KSE2 130905Z 16008KT 25/22 A2995 RMK A01 T02530220  RH  082%=      5-min Rain = 0
KSE2 130906Z 16007KT 25/22 A2995 RMK A01 T02530220  RH  082%=      5-min Rain = 0
KSE2 130907Z 16005KT 25/22 A2995 RMK A01 T02530220  RH  082%=      5-min Rain = 0
KSE2 130908Z 15007KT 25/22 A2995 RMK A01 T02520219  RH  082%=      5-min Rain = 0
KSE2 130909Z 16008KT 25/22 A2995 RMK A01 T02520219  RH  082%=      5-min Rain = 0
KSE2 130910Z 16007KT 25/22 A2995 RMK A01 T02520219  RH  082%=      5-min Rain = 0
KSE2 130911Z 16006KT 25/22 A2995 RMK A01 T02520220  RH  082%=      5-min Rain = 0
KSE2 130912Z 16011KT 25/22 A2995 RMK A01 T02510219  RH  082%=      5-min Rain = 0
KSE2 130913Z 16007KT 25/22 A2995 RMK A01 T02510219  RH  082%=      5-min Rain = 0
KSE2 130914Z 15008KT 25/22 A2995 RMK A01 T02510219  RH  082%=      5-min Rain = 0
KSE2 130915Z 17009KT 25/22 A2995 RMK A01 T02510219  RH  082%=      5-min Rain = 0
KSE2 130916Z 16008KT 25/22 A2995 RMK A01 T02510219  RH  082%=      5-min Rain = 0
KSE2 130917Z 16010KT 25/22 A2995 RMK A01 T02510219  RH  082%=      5-min Rain = 0
KSE2 130918Z 16009KT 25/22 A2995 RMK A01 T02510219  RH  082%=      5-min Rain = 0
KSE2 130919Z 16008KT 25/22 A2995 RMK A01 T02510219  RH  082%=      5-min Rain = 0
KSE2 130920Z 16009KT 25/22 A2995 RMK A01 T02510219  RH  083%=      5-min Rain = 0
KSE2 130921Z 16011KT 25/22 A2995 RMK A01 T02510219  RH  083%=      5-min Rain = 0
KSE2 130922Z 16008KT 25/22 A2995 RMK A01 T02510219  RH  083%=      5-min Rain = 0
KSE2 130923Z 16007KT 25/22 A2995 RMK A01 T02510219  RH  083%=      5-min Rain = 0
KSE2 130924Z 17008KT 25/22 A2995 RMK A01 T02510219  RH  083%=      5-min Rain = 0
KSE2 130925Z 16008KT 25/22 A2995 RMK A01 T02510219  RH  083%=      5-min Rain = 0
KSE2 130926Z 16009KT 25/22 A2995 RMK A01 T02500219  RH  083%=      5-min Rain = 0
KSE2 130927Z 16008KT 25/22 A2995 RMK A01 T02500219  RH  083%=      5-min Rain = 0
KSE2 130928Z 16009KT 25/22 A2995 RMK A01 T02500219  RH  083%=      5-min Rain = 0
KSE2 130929Z 16009KT 25/22 A2995 RMK A01 T02500219  RH  083%=      5-min Rain = 0
KSE2 130930Z 16008KT 25/22 A2995 RMK A01 T02500219  RH  083%=      5-min Rain = 0
KSE2 130931Z 16008KT 25/22 A2995 RMK A01 T02500219  RH  083%=      5-min Rain = 0
KSE2 130932Z 16008KT 25/22 A2995 RMK A01 T02500219  RH  083%=      5-min Rain = 0
KSE2 130933Z 16009KT 25/22 A2995 RMK A01 T02490219  RH  083%=      5-min Rain = 0
KSE2 130934Z 16006KT 25/22 A2995 RMK A01 T02490219  RH  083%=      5-min Rain = 0
KSE2 130935Z 17009KT 25/22 A2995 RMK A01 T02490219  RH  083%=      5-min Rain = 0
KSE2 130936Z 17009KT 25/22 A2995 RMK A01 T02490219  RH  083%=      5-min Rain = 0
KSE2 130937Z 18008KT 25/22 A2995 RMK A01 T02490219  RH  083%=      5-min Rain = 0
KSE2 130938Z 16007KT 25/22 A2995 RMK A01 T02490219  RH  083%=      5-min Rain = 0
KSE2 130939Z 16008G13KT 25/22 A2995 RMK A01 T02490219  RH  084%=      5-min Rain = 0
KSE2 130940Z 16009KT 25/22 A2995 RMK A01 T02490219  RH  084%=      5-min Rain = 0
KSE2 130941Z 16009KT 25/22 A2995 RMK A01 T02480219  RH  084%=      5-min Rain = 0
KSE2 130942Z 16009KT 25/22 A2995 RMK A01 T02480219  RH  084%=      5-min Rain = 0
KSE2 130943Z 16009KT 25/22 A2995 RMK A01 T02480219  RH  084%=      5-min Rain = 0
KSE2 130944Z 16009KT 25/22 A2995 RMK A01 T02480219  RH  084%=      5-min Rain = 0
KSE2 130945Z 17007KT 25/22 A2995 RMK A01 T02480219  RH  084%=      5-min Rain = 0
KSE2 130946Z 17008KT 25/22 A2995 RMK A01 T02480219  RH  084%=      5-min Rain = 0
KSE2 130947Z 16006KT 25/22 A2996 RMK A01 T02470219  RH  084%=      5-min Rain = 0
KSE2 130948Z 16007KT 25/22 A2996 RMK A01 T02470219  RH  084%=      5-min Rain = 0
KSE2 130949Z 17008KT 25/22 A2996 RMK A01 T02470219  RH  084%=      5-min Rain = 0
KSE2 130950Z 17006KT 25/22 A2996 RMK A01 T02470219  RH  084%=      5-min Rain = 0
KSE2 130951Z 16007KT 25/22 A2996 RMK A01 T02470219  RH  084%=      5-min Rain = 0
KSE2 130952Z 17006KT 25/22 A2996 RMK A01 T02470219  RH  084%=      5-min Rain = 0
KSE2 130953Z 17010KT 25/22 A2996 RMK A01 T02460219  RH  085%=      5-min Rain = 0
KSE2 130954Z 17008KT 25/22 A2996 RMK A01 T02460219  RH  085%=      5-min Rain = 0
KSE2 130955Z 16007KT 25/22 A2996 RMK A01 T02460219  RH  085%=      5-min Rain = 0
KSE2 130956Z 17008KT 25/22 A2996 RMK A01 T02460219  RH  085%=      5-min Rain = 0
KSE2 130957Z 17007KT 25/22 A2996 RMK A01 T02460219  RH  085%=      5-min Rain = 0
KSE2 130958Z 16009KT 25/22 A2996 RMK A01 T02460219  RH  085%=      5-min Rain = 0
KSE2 130959Z 17008KT 25/22 A2996 RMK A01 T02460219  RH  085%=      5-min Rain = 0
KSE2 131000Z 16008KT 25/22 A2996 RMK A01 T02460219  RH  085%=      5-min Rain = 0
KSE2 131001Z 16008KT 25/22 A2996 RMK A01 T02460219  RH  085%=      5-min Rain = 0
KSE2 131002Z 17009KT 25/22 A2996 RMK A01 T02460219  RH  085%=      5-min Rain = 0
KSE2 131003Z 16008KT 25/22 A2996 RMK A01 T02460219  RH  085%=      5-min Rain = 0
KSE2 131004Z 17009KT 25/22 A2996 RMK A01 T02460219  RH  085%=      5-min Rain = 0
KSE2 131005Z 17008KT 25/22 A2996 RMK A01 T02460219  RH  085%=      5-min Rain = 0
KSE2 131006Z 16009KT 25/22 A2996 RMK A01 T02460219  RH  085%=      5-min Rain = 0
KSE2 131007Z 16009KT 25/22 A2996 RMK A01 T02450219  RH  085%=      5-min Rain = 0
KSE2 131008Z 17008KT 25/22 A2996 RMK A01 T02450219  RH  085%=      5-min Rain = 0
KSE2 131009Z 16007KT 25/22 A2996 RMK A01 T02450219  RH  085%=      5-min Rain = 0
KSE2 131010Z 17006KT 24/22 A2996 RMK A01 T02440218  RH  085%=      5-min Rain = 0
KSE2 131011Z 16009KT 24/22 A2996 RMK A01 T02440219  RH  086%=      5-min Rain = 0
KSE2 131012Z 16010KT 24/22 A2996 RMK A01 T02440219  RH  086%=      5-min Rain = 0
KSE2 131013Z 16008KT 24/22 A2996 RMK A01 T02440219  RH  086%=      5-min Rain = 0
KSE2 131014Z 16008KT 24/22 A2996 RMK A01 T02440219  RH  086%=      5-min Rain = 0
KSE2 131015Z 16009KT 24/22 A2996 RMK A01 T02440219  RH  086%=      5-min Rain = 0
KSE2 131016Z 15009KT 24/22 A2996 RMK A01 T02440219  RH  086%=      5-min Rain = 0
KSE2 131017Z 17008KT 24/22 A2996 RMK A01 T02440219  RH  086%=      5-min Rain = 0
KSE2 131018Z 17008KT 24/22 A2996 RMK A01 T02430219  RH  086%=      5-min Rain = 0
KSE2 131019Z 16007KT 24/22 A2996 RMK A01 T02430218  RH  086%=      5-min Rain = 0
KSE2 131020Z 16009KT 24/22 A2996 RMK A01 T02430218  RH  086%=      5-min Rain = 0
KSE2 131021Z 16009KT 24/22 A2996 RMK A01 T02430219  RH  086%=      5-min Rain = 0
KSE2 131022Z 16007KT 24/22 A2996 RMK A01 T02430219  RH  086%=      5-min Rain = 0
KSE2 131023Z 17008KT 24/22 A2996 RMK A01 T02430219  RH  086%=      5-min Rain = 0
KSE2 131024Z 16007KT 24/22 A2996 RMK A01 T02420218  RH  086%=      5-min Rain = 0
KSE2 131025Z 16008KT 24/22 A2996 RMK A01 T02420218  RH  087%=      5-min Rain = 0
KSE2 131026Z 17006KT 24/22 A2996 RMK A01 T02420218  RH  087%=      5-min Rain = 0
KSE2 131027Z 16007KT 24/22 A2996 RMK A01 T02420219  RH  087%=      5-min Rain = 0
KSE2 131028Z 16008KT 24/22 A2996 RMK A01 T02420218  RH  087%=      5-min Rain = 0
KSE2 131029Z 16009KT 24/22 A2996 RMK A01 T02410218  RH  087%=      5-min Rain = 0
KSE2 131030Z 16008KT 24/22 A2996 RMK A01 T02420218  RH  087%=      5-min Rain = 0
KSE2 131031Z 17007KT 24/22 A2996 RMK A01 T02410218  RH  087%=      5-min Rain = 0
KSE2 131032Z 16007KT 24/22 A2996 RMK A01 T02410218  RH  087%=      5-min Rain = 0
KSE2 131033Z 15007KT 24/22 A2996 RMK A01 T02400218  RH  087%=      5-min Rain = 0
KSE2 131034Z 16007KT 24/22 A2996 RMK A01 T02410218  RH  087%=      5-min Rain = 0
KSE2 131035Z 16008KT 24/22 A2996 RMK A01 T02400218  RH  087%=      5-min Rain = 0
KSE2 131036Z 16007KT 24/22 A2996 RMK A01 T02400218  RH  087%=      5-min Rain = 0
KSE2 131037Z 17007KT 24/22 A2996 RMK A01 T02400218  RH  088%=      5-min Rain = 0
KSE2 131038Z 16010KT 24/22 A2996 RMK A01 T02400218  RH  088%=      5-min Rain = 0
KSE2 131039Z 17009KT 24/22 A2996 RMK A01 T02400218  RH  088%=      5-min Rain = 0
KSE2 131040Z 16009KT 24/22 A2996 RMK A01 T02400218  RH  088%=      5-min Rain = 0
KSE2 131041Z 16007KT 24/22 A2996 RMK A01 T02400218  RH  088%=      5-min Rain = 0
KSE2 131042Z 16009KT 24/22 A2995 RMK A01 T02390218  RH  088%=      5-min Rain = 0
KSE2 131043Z 17009KT 24/22 A2995 RMK A01 T02400218  RH  088%=      5-min Rain = 0
KSE2 131044Z 16009KT 24/22 A2995 RMK A01 T02400218  RH  088%=      5-min Rain = 0
KSE2 131045Z 16010KT 24/22 A2995 RMK A01 T02400218  RH  088%=      5-min Rain = 0
KSE2 131046Z 16009KT 24/22 A2995 RMK A01 T02400218  RH  088%=      5-min Rain = 0
KSE2 131047Z 16007KT 24/22 A2996 RMK A01 T02400218  RH  088%=      5-min Rain = 0
KSE2 131048Z 16006KT 24/22 A2996 RMK A01 T02390218  RH  088%=      5-min Rain = 0
KSE2 131049Z 16008KT 24/22 A2996 RMK A01 T02390218  RH  088%=      5-min Rain = 0
KSE2 131050Z 16009KT 24/22 A2996 RMK A01 T02390217  RH  088%=      5-min Rain = 0
KSE2 131051Z 16008KT 24/22 A2996 RMK A01 T02390218  RH  088%=      5-min Rain = 0
KSE2 131052Z 16009KT 24/22 A2996 RMK A01 T02390218  RH  088%=      5-min Rain = 0
KSE2 131053Z 16009KT 24/22 A2996 RMK A01 T02390218  RH  088%=      5-min Rain = 0
KSE2 131054Z 16008KT 24/22 A2996 RMK A01 T02390218  RH  088%=      5-min Rain = 0
KSE2 131055Z 16007KT 24/22 A2996 RMK A01 T02390218  RH  088%=      5-min Rain = 0
KSE2 131056Z 16008KT 24/22 A2996 RMK A01 T02380217  RH  088%=      5-min Rain = 0
KSE2 131057Z 16006KT 24/22 A2996 RMK A01 T02380217  RH  088%=      5-min Rain = 0
KSE2 131058Z 16009KT 24/22 A2996 RMK A01 T02380217  RH  088%=      5-min Rain = 0
KSE2 131059Z 16008KT 24/22 A2996 RMK A01 T02380217  RH  088%=      5-min Rain = 0
KSE2 131100Z 16008KT 24/22 A2996 RMK A01 T02380217  RH  088%=      5-min Rain = 0
KSE2 131101Z 16007KT 24/22 A2996 RMK A01 T02380217  RH  088%=      5-min Rain = 0
KSE2 131102Z 16007KT 24/22 A2996 RMK A01 T02370217  RH  088%=      5-min Rain = 0
KSE2 131103Z 16008KT 24/22 A2996 RMK A01 T02370217  RH  089%=      5-min Rain = 0
KSE2 131104Z 16009KT 24/22 A2996 RMK A01 T02370217  RH  089%=      5-min Rain = 0
KSE2 131105Z 16008KT 24/22 A2996 RMK A01 T02370217  RH  089%=      5-min Rain = 0
KSE2 131106Z 16010KT 24/22 A2996 RMK A01 T02370217  RH  089%=      5-min Rain = 0
KSE2 131107Z 16010KT 24/22 A2996 RMK A01 T02360217  RH  089%=      5-min Rain = 0
KSE2 131108Z 16009KT 24/22 A2996 RMK A01 T02360217  RH  089%=      5-min Rain = 0
KSE2 131109Z 16007KT 24/22 A2996 RMK A01 T02360217  RH  089%=      5-min Rain = 0
KSE2 131110Z 17008KT 24/22 A2996 RMK A01 T02360217  RH  089%=      5-min Rain = 0
KSE2 131111Z 16008KT 24/22 A2996 RMK A01 T02360217  RH  089%=      5-min Rain = 0
KSE2 131112Z 16007KT 24/22 A2996 RMK A01 T02360217  RH  089%=      5-min Rain = 0
KSE2 131113Z 16007KT 24/22 A2996 RMK A01 T02360217  RH  089%=      5-min Rain = 0
KSE2 131114Z 16006KT 24/22 A2996 RMK A01 T02350217  RH  089%=      5-min Rain = 0
KSE2 131115Z 16007KT 24/22 A2996 RMK A01 T02350216  RH  089%=      5-min Rain = 0
KSE2 131116Z 15008KT 24/22 A2996 RMK A01 T02350217  RH  089%=      5-min Rain = 0
KSE2 131117Z 16007KT 24/22 A2996 RMK A01 T02350217  RH  089%=      5-min Rain = 0
KSE2 131118Z 16007KT 24/22 A2997 RMK A01 T02350217  RH  089%=      5-min Rain = 0
KSE2 131119Z 16007KT 24/22 A2997 RMK A01 T02350217  RH  090%=      5-min Rain = 0
KSE2 131120Z 15008KT 24/22 A2997 RMK A01 T02350217  RH  090%=      5-min Rain = 0
KSE2 131121Z 15006KT 24/22 A2997 RMK A01 T02350217  RH  090%=      5-min Rain = 0
KSE2 131122Z 16007KT 23/22 A2997 RMK A01 T02340216  RH  090%=      5-min Rain = 0
KSE2 131123Z 16009KT 23/22 A2997 RMK A01 T02340216  RH  090%=      5-min Rain = 0
KSE2 131124Z 16007KT 23/22 A2997 RMK A01 T02340217  RH  090%=      5-min Rain = 0
KSE2 131125Z 15007KT 23/22 A2997 RMK A01 T02340216  RH  090%=      5-min Rain = 0
KSE2 131126Z 15008KT 23/22 A2997 RMK A01 T02340216  RH  090%=      5-min Rain = 0
KSE2 131127Z 15009KT 23/22 A2997 RMK A01 T02340216  RH  090%=      5-min Rain = 0
KSE2 131128Z 15008KT 23/22 A2997 RMK A01 T02340217  RH  090%=      5-min Rain = 0
KSE2 131129Z 15007KT 23/22 A2997 RMK A01 T02340216  RH  090%=      5-min Rain = 0
KSE2 131130Z 16007KT 23/22 A2997 RMK A01 T02330216  RH  090%=      5-min Rain = 0
KSE2 131131Z 16008KT 23/22 A2997 RMK A01 T02330216  RH  090%=      5-min Rain = 0
KSE2 131132Z 16009KT 23/22 A2997 RMK A01 T02330216  RH  090%=      5-min Rain = 0
KSE2 131133Z 16008KT 23/22 A2997 RMK A01 T02330216  RH  090%=      5-min Rain = 0
KSE2 131134Z 16008KT 23/22 A2997 RMK A01 T02330216  RH  090%=      5-min Rain = 0
KSE2 131135Z 16008KT 23/22 A2997 RMK A01 T02330216  RH  090%=      5-min Rain = 0
KSE2 131136Z 16008KT 23/22 A2997 RMK A01 T02330216  RH  090%=      5-min Rain = 0
KSE2 131137Z 16007KT 23/22 A2997 RMK A01 T02330216  RH  090%=      5-min Rain = 0
KSE2 131138Z 16006KT 23/22 A2997 RMK A01 T02320216  RH  090%=      5-min Rain = 0
KSE2 131139Z 16008KT 23/22 A2997 RMK A01 T02320216  RH  090%=      5-min Rain = 0
KSE2 131140Z 16009KT 23/22 A2997 RMK A01 T02320216  RH  091%=      5-min Rain = 0
KSE2 131141Z 16008KT 23/22 A2997 RMK A01 T02320216  RH  091%=      5-min Rain = 0
KSE2 131142Z 16006KT 23/22 A2997 RMK A01 T02320216  RH  090%=      5-min Rain = 0
KSE2 131143Z 16007KT 23/22 A2997 RMK A01 T02320216  RH  090%=      5-min Rain = 0
KSE2 131144Z 17006KT 23/22 A2997 RMK A01 T02320216  RH  090%=      5-min Rain = 0
KSE2 131145Z 17007KT 23/22 A2997 RMK A01 T02320216  RH  091%=      5-min Rain = 0
KSE2 131146Z 17008KT 23/22 A2997 RMK A01 T02320216  RH  091%=      5-min Rain = 0
KSE2 131147Z 16008KT 23/22 A2997 RMK A01 T02320216  RH  091%=      5-min Rain = 0
KSE2 131148Z 16008KT 23/22 A2997 RMK A01 T02320216  RH  091%=      5-min Rain = 0
KSE2 131149Z 17008KT 23/22 A2997 RMK A01 T02320216  RH  091%=      5-min Rain = 0
KSE2 131150Z 16006KT 23/22 A2997 RMK A01 T02320216  RH  091%=      5-min Rain = 0
KSE2 131151Z 16006KT 23/22 A2997 RMK A01 T02310216  RH  091%=      5-min Rain = 0
KSE2 131152Z 16008KT 23/22 A2997 RMK A01 T02310216  RH  091%=      5-min Rain = 0
KSE2 131153Z 16007KT 23/22 A2997 RMK A01 T02310216  RH  091%=      5-min Rain = 0
KSE2 131154Z 17007KT 23/22 A2997 RMK A01 T02310215  RH  091%=      5-min Rain = 0
KSE2 131155Z 16007KT 23/22 A2997 RMK A01 T02310215  RH  091%=      5-min Rain = 0
KSE2 131156Z 16007KT 23/22 A2997 RMK A01 T02300215  RH  091%=      5-min Rain = 0
KSE2 131157Z 16006KT 23/22 A2997 RMK A01 T02300215  RH  091%=      5-min Rain = 0
KSE2 131158Z 17007KT 23/22 A2997 RMK A01 T02300215  RH  091%=      5-min Rain = 0
KSE2 131159Z 16007KT 23/22 A2997 RMK A01 T02300215  RH  091%=      5-min Rain = 0
KSE2 131200Z 17008KT 23/22 A2997 RMK A01 T02300215  RH  091%=      5-min Rain = 0
KSE2 131201Z 16007KT 23/22 A2997 RMK A01 T02300215  RH  091%=      5-min Rain = 0
KSE2 131202Z 16006KT 23/22 A2997 RMK A01 T02300215  RH  091%=      5-min Rain = 0
KSE2 131203Z 16006KT 23/22 A2997 RMK A01 T02300215  RH  091%=      5-min Rain = 0
KSE2 131204Z 17005KT 23/22 A2997 RMK A01 T02300215  RH  091%=      5-min Rain = 0
KSE2 131205Z 17006KT 23/22 A2997 RMK A01 T02300215  RH  091%=      5-min Rain = 0
KSE2 131206Z 16007KT 23/22 A2997 RMK A01 T02300215  RH  091%=      5-min Rain = 0
KSE2 131207Z 15006KT 23/22 A2997 RMK A01 T02290215  RH  091%=      5-min Rain = 0
KSE2 131208Z 17007KT 23/22 A2997 RMK A01 T02290215  RH  092%=      5-min Rain = 0
KSE2 131209Z 16007KT 23/22 A2997 RMK A01 T02290215  RH  092%=      5-min Rain = 0
KSE2 131210Z 16006KT 23/22 A2997 RMK A01 T02290215  RH  092%=      5-min Rain = 0
KSE2 131211Z 16007KT 23/22 A2997 RMK A01 T02290215  RH  092%=      5-min Rain = 0
KSE2 131212Z 16006KT 23/22 A2997 RMK A01 T02290215  RH  092%=      5-min Rain = 0
KSE2 131213Z 16007KT 23/22 A2997 RMK A01 T02290215  RH  092%=      5-min Rain = 0
KSE2 131214Z 16008KT 23/22 A2997 RMK A01 T02290215  RH  092%=      5-min Rain = 0
KSE2 131215Z 16007KT 23/22 A2997 RMK A01 T02290215  RH  092%=      5-min Rain = 0
KSE2 131216Z 16008KT 23/22 A2997 RMK A01 T02290215  RH  092%=      5-min Rain = 0
KSE2 131217Z 16007KT 23/22 A2997 RMK A01 T02290215  RH  092%=      5-min Rain = 0
KSE2 131218Z 16008KT 23/22 A2997 RMK A01 T02290215  RH  092%=      5-min Rain = 0
KSE2 131219Z 16007KT 23/21 A2997 RMK A01 T02290214  RH  091%=      5-min Rain = 0
KSE2 131220Z 16007KT 23/21 A2997 RMK A01 T02290214  RH  091%=      5-min Rain = 0
KSE2 131221Z 16007KT 23/21 A2997 RMK A01 T02290214  RH  091%=      5-min Rain = 0
KSE2 131222Z 15006KT 23/21 A2997 RMK A01 T02290214  RH  091%=      5-min Rain = 0
KSE2 131223Z 16007KT 23/21 A2997 RMK A01 T02290214  RH  091%=      5-min Rain = 0
KSE2 131224Z 15006KT 23/21 A2997 RMK A01 T02290214  RH  091%=      5-min Rain = 0
KSE2 131225Z 16007KT 23/21 A2997 RMK A01 T02290214  RH  091%=      5-min Rain = 0
KSE2 131226Z 15007KT 23/21 A2998 RMK A01 T02290214  RH  091%=      5-min Rain = 0
KSE2 131227Z 16006KT 23/21 A2998 RMK A01 T02290214  RH  091%=      5-min Rain = 0
KSE2 131228Z 16005KT 23/21 A2998 RMK A01 T02290214  RH  091%=      5-min Rain = 0
KSE2 131229Z 16006KT 23/21 A2998 RMK A01 T02300214  RH  091%=      5-min Rain = 0
KSE2 131230Z 16007KT 23/21 A2998 RMK A01 T02290214  RH  091%=      5-min Rain = 0
KSE2 131231Z 16007KT 23/21 A2998 RMK A01 T02300214  RH  091%=      5-min Rain = 0
KSE2 131232Z 16007KT 23/21 A2998 RMK A01 T02300214  RH  091%=      5-min Rain = 0
KSE2 131233Z 17006KT 23/21 A2998 RMK A01 T02300214  RH  090%=      5-min Rain = 0
KSE2 131234Z 15006KT 23/21 A2998 RMK A01 T02300214  RH  090%=      5-min Rain = 0
KSE2 131235Z 15007KT 23/21 A2998 RMK A01 T02300214  RH  090%=      5-min Rain = 0
KSE2 131236Z 16006KT 23/21 A2998 RMK A01 T02310214  RH  090%=      5-min Rain = 0
KSE2 131237Z 16007KT 23/21 A2998 RMK A01 T02310214  RH  090%=      5-min Rain = 0
KSE2 131238Z 16007KT 23/21 A2998 RMK A01 T02310213  RH  090%=      5-min Rain = 0
KSE2 131239Z 16005KT 23/21 A2998 RMK A01 T02310214  RH  090%=      5-min Rain = 0
KSE2 131240Z 16005KT 23/21 A2998 RMK A01 T02320214  RH  090%=      5-min Rain = 0
KSE2 131241Z 15006KT 23/21 A2998 RMK A01 T02320214  RH  090%=      5-min Rain = 0
KSE2 131242Z 16007KT 23/21 A2998 RMK A01 T02320214  RH  089%=      5-min Rain = 0
KSE2 131243Z 16005KT 23/21 A2998 RMK A01 T02320214  RH  089%=      5-min Rain = 0
KSE2 131244Z 16006KT 23/21 A2998 RMK A01 T02330214  RH  089%=      5-min Rain = 0
KSE2 131245Z 16007KT 23/21 A2998 RMK A01 T02330214  RH  089%=      5-min Rain = 0
KSE2 131246Z 16007KT 23/21 A2998 RMK A01 T02330213  RH  089%=      5-min Rain = 0
KSE2 131247Z 16008KT 23/21 A2998 RMK A01 T02330214  RH  089%=      5-min Rain = 0
KSE2 131248Z 16007KT 23/21 A2998 RMK A01 T02330214  RH  089%=      5-min Rain = 0
KSE2 131249Z 15006KT 23/21 A2998 RMK A01 T02330213  RH  089%=      5-min Rain = 0
KSE2 131250Z 16006KT 23/21 A2998 RMK A01 T02340213  RH  088%=      5-min Rain = 0
KSE2 131251Z 15006KT 23/21 A2998 RMK A01 T02340214  RH  088%=      5-min Rain = 0
KSE2 131252Z 16008KT 23/21 A2998 RMK A01 T02340213  RH  088%=      5-min Rain = 0
KSE2 131253Z 17006KT 23/21 A2998 RMK A01 T02340214  RH  088%=      5-min Rain = 0
KSE2 131254Z 15009KT 24/21 A2998 RMK A01 T02350214  RH  088%=      5-min Rain = 0
KSE2 131255Z 17007KT 24/21 A2998 RMK A01 T02350213  RH  088%=      5-min Rain = 0
KSE2 131256Z 17005KT 24/21 A2998 RMK A01 T02350213  RH  088%=      5-min Rain = 0
KSE2 131257Z 16007KT 24/21 A2998 RMK A01 T02360214  RH  088%=      5-min Rain = 0
KSE2 131258Z 15006KT 24/21 A2998 RMK A01 T02360214  RH  087%=      5-min Rain = 0
KSE2 131259Z 16009KT 24/21 A2998 RMK A01 T02360213  RH  087%=      5-min Rain = 0
KSE2 131300Z 17009KT 24/21 A2998 RMK A01 T02360213  RH  087%=      5-min Rain = 0
KSE2 131301Z 16009KT 24/21 A2998 RMK A01 T02360213  RH  087%=      5-min Rain = 0
KSE2 131302Z 16008KT 24/21 A2998 RMK A01 T02360213  RH  087%=      5-min Rain = 0
KSE2 131303Z 16009KT 24/21 A2998 RMK A01 T02360212  RH  086%=      5-min Rain = 0
KSE2 131304Z 17008KT 24/21 A2998 RMK A01 T02360212  RH  086%=      5-min Rain = 0
KSE2 131305Z 17007KT 24/21 A2998 RMK A01 T02370213  RH  086%=      5-min Rain = 0
KSE2 131306Z 16007KT 24/21 A2998 RMK A01 T02370213  RH  086%=      5-min Rain = 0
KSE2 131307Z 15007KT 24/21 A2998 RMK A01 T02380213  RH  086%=      5-min Rain = 0
KSE2 131308Z 16010KT 24/21 A2998 RMK A01 T02380212  RH  085%=      5-min Rain = 0
KSE2 131309Z 16008KT 24/21 A2998 RMK A01 T02380212  RH  085%=      5-min Rain = 0
KSE2 131310Z 15007KT 24/21 A2998 RMK A01 T02380212  RH  085%=      5-min Rain = 0
KSE2 131311Z 17006KT 24/21 A2998 RMK A01 T02390213  RH  085%=      5-min Rain = 0
KSE2 131312Z 16008KT 24/21 A2998 RMK A01 T02410213  RH  085%=      5-min Rain = 0
KSE2 131313Z 16008KT 24/21 A2998 RMK A01 T02410213  RH  084%=      5-min Rain = 0
KSE2 131314Z 16007KT 24/21 A2998 RMK A01 T02410212  RH  084%=      5-min Rain = 0
KSE2 131315Z 16010KT 24/21 A2998 RMK A01 T02410211  RH  084%=      5-min Rain = 0
KSE2 131316Z 15008KT 24/21 A2998 RMK A01 T02410210  RH  083%=      5-min Rain = 0
KSE2 131317Z 16008G13KT 24/21 A2998 RMK A01 T02410211  RH  083%=      5-min Rain = 0
KSE2 131318Z 16010KT 24/21 A2998 RMK A01 T02420210  RH  083%=      5-min Rain = 0
KSE2 131319Z 16010KT 24/21 A2998 RMK A01 T02420210  RH  082%=      5-min Rain = 0
KSE2 131320Z 16008KT 24/21 A2998 RMK A01 T02420211  RH  083%=      5-min Rain = 0
KSE2 131321Z 16008KT 24/21 A2998 RMK A01 T02430211  RH  082%=      5-min Rain = 0
KSE2 131322Z 16007KT 24/21 A2998 RMK A01 T02430211  RH  082%=      5-min Rain = 0
KSE2 131323Z 18007KT 24/21 A2998 RMK A01 T02440210  RH  081%=      5-min Rain = 0
KSE2 131324Z 16007KT 25/21 A2998 RMK A01 T02450210  RH  081%=      5-min Rain = 0
KSE2 131325Z 15009KT 25/21 A2998 RMK A01 T02460210  RH  080%=      5-min Rain = 0
KSE2 131326Z 15009KT 25/21 A2998 RMK A01 T02470209  RH  080%=      5-min Rain = 0
KSE2 131327Z 15010KT 25/21 A2998 RMK A01 T02470209  RH  080%=      5-min Rain = 0
KSE2 131328Z 15008KT 25/21 A2998 RMK A01 T02460209  RH  080%=      5-min Rain = 0
KSE2 131329Z 16009KT 25/21 A2998 RMK A01 T02460209  RH  080%=      5-min Rain = 0
KSE2 131330Z 16010KT 25/21 A2998 RMK A01 T02460209  RH  080%=      5-min Rain = 0
KSE2 131331Z 15006KT 25/21 A2998 RMK A01 T02460209  RH  080%=      5-min Rain = 0
KSE2 131332Z 15009KT 25/21 A2998 RMK A01 T02470209  RH  079%=      5-min Rain = 0
KSE2 131333Z 15009KT 25/21 A2998 RMK A01 T02480209  RH  079%=      5-min Rain = 0
KSE2 131334Z 16008KT 25/21 A2998 RMK A01 T02480208  RH  078%=      5-min Rain = 0
KSE2 131335Z 15008KT 25/21 A2998 RMK A01 T02490208  RH  078%=      5-min Rain = 0
KSE2 131336Z 16007KT 25/21 A2998 RMK A01 T02490208  RH  078%=      5-min Rain = 0
KSE2 131337Z 16008KT 25/21 A2998 RMK A01 T02510208  RH  077%=      5-min Rain = 0
KSE2 131338Z 15010KT 25/21 A2998 RMK A01 T02510207  RH  077%=      5-min Rain = 0
KSE2 131339Z 15009KT 25/21 A2998 RMK A01 T02510207  RH  076%=      5-min Rain = 0
KSE2 131340Z 16010KT 25/21 A2998 RMK A01 T02510206  RH  076%=      5-min Rain = 0
KSE2 131341Z 16010KT 25/21 A2998 RMK A01 T02510206  RH  076%=      5-min Rain = 0
KSE2 131342Z 16009KT 25/21 A2999 RMK A01 T02510206  RH  076%=      5-min Rain = 0
KSE2 131343Z 17008KT 25/21 A2999 RMK A01 T02520206  RH  076%=      5-min Rain = 0
KSE2 131344Z 16008KT 25/21 A2999 RMK A01 T02530205  RH  075%=      5-min Rain = 0
KSE2 131345Z 16008KT 25/21 A2999 RMK A01 T02540206  RH  075%=      5-min Rain = 0
KSE2 131346Z 15010KT 26/21 A2999 RMK A01 T02550205  RH  074%=      5-min Rain = 0
KSE2 131347Z 15008KT 26/20 A2999 RMK A01 T02550204  RH  073%=      5-min Rain = 0
KSE2 131348Z 15009KT 26/20 A2999 RMK A01 T02550204  RH  073%=      5-min Rain = 0
KSE2 131349Z 17007KT 26/20 A2999 RMK A01 T02560204  RH  073%=      5-min Rain = 0
KSE2 131350Z 16007KT 26/21 A2999 RMK A01 T02570205  RH  073%=      5-min Rain = 0
KSE2 131351Z 16010KT 26/20 A2999 RMK A01 T02590204  RH  072%=      5-min Rain = 0
KSE2 131352Z 15009KT 26/20 A2999 RMK A01 T02580203  RH  072%=      5-min Rain = 0
KSE2 131353Z 16007KT 26/20 A2999 RMK A01 T02590204  RH  072%=      5-min Rain = 0
KSE2 131354Z 16007KT 26/20 A2999 RMK A01 T02590203  RH  071%=      5-min Rain = 0
KSE2 131355Z 16010KT 26/20 A2999 RMK A01 T02600203  RH  071%=      5-min Rain = 0
KSE2 131356Z 16009KT 26/20 A2999 RMK A01 T02590203  RH  071%=      5-min Rain = 0
KSE2 131357Z 16007KT 26/20 A2999 RMK A01 T02590204  RH  071%=      5-min Rain = 0
KSE2 131358Z 17008KT 26/20 A2999 RMK A01 T02600204  RH  071%=      5-min Rain = 0
KSE2 131359Z 16006KT 26/20 A2999 RMK A01 T02620203  RH  070%=      5-min Rain = 0
KSE2 131400Z 18006KT 26/20 A2999 RMK A01 T02640204  RH  070%=      5-min Rain = 0
KSE2 131401Z 18007KT 27/20 A2999 RMK A01 T02650202  RH  068%=      5-min Rain = 0
KSE2 131402Z 15006KT 27/20 A2999 RMK A01 T02650203  RH  069%=      5-min Rain = 0
KSE2 131403Z 16006KT 27/20 A2999 RMK A01 T02660204  RH  068%=      5-min Rain = 0
KSE2 131404Z 16006KT 27/20 A2999 RMK A01 T02680204  RH  068%=      5-min Rain = 0
KSE2 131405Z 15006KT 27/20 A2999 RMK A01 T02690203  RH  067%=      5-min Rain = 0
KSE2 131406Z 16009KT 27/20 A2999 RMK A01 T02690200  RH  066%=      5-min Rain = 0
KSE2 131407Z 17008KT 27/20 A2999 RMK A01 T02670201  RH  067%=      5-min Rain = 0
KSE2 131408Z 15006KT 27/20 A2999 RMK A01 T02660201  RH  068%=      5-min Rain = 0
KSE2 131409Z 16009KT 27/20 A2999 RMK A01 T02670201  RH  067%=      5-min Rain = 0
KSE2 131410Z 15008KT 27/20 A2999 RMK A01 T02670200  RH  067%=      5-min Rain = 0
KSE2 131411Z 15007KT 27/20 A2999 RMK A01 T02670199  RH  066%=      5-min Rain = 0
KSE2 131412Z 14007KT 27/20 A2999 RMK A01 T02670200  RH  067%=      5-min Rain = 0
KSE2 131413Z 16008KT 27/20 A2999 RMK A01 T02680200  RH  066%=      5-min Rain = 0
KSE2 131414Z 15008KT 27/20 A2999 RMK A01 T02690199  RH  066%=      5-min Rain = 0
KSE2 131415Z 15007KT 27/20 A2999 RMK A01 T02690199  RH  065%=      5-min Rain = 0
KSE2 131416Z 15006KT 27/20 A2999 RMK A01 T02690199  RH  065%=      5-min Rain = 0
KSE2 131417Z 16005KT 27/20 A2999 RMK A01 T02700198  RH  065%=      5-min Rain = 0
KSE2 131418Z 17005KT 27/20 A30 RMK A01 T02710200  RH  065%=      5-min Rain = 0
KSE2 131419Z 16006KT 28/20 A30 RMK A01 T02750200  RH  064%=      5-min Rain = 0
KSE2 131420Z 19008KT 28/20 A30 RMK A01 T02760196  RH  062%=      5-min Rain = 0
KSE2 131421Z 16004KT 28/20 A30 RMK A01 T02750197  RH  062%=      5-min Rain = 0
KSE2 131422Z 17006KT 28/20 A30 RMK A01 T02770200  RH  063%=      5-min Rain = 0
KSE2 131423Z 18007KT 28/20 A30 RMK A01 T02780195  RH  061%=      5-min Rain = 0
KSE2 131424Z 18008KT 28/20 A2999 RMK A01 T02780197  RH  061%=      5-min Rain = 0
KSE2 131425Z 19006KT 28/20 A2999 RMK A01 T02770197  RH  061%=      5-min Rain = 0
KSE2 131426Z 16006KT 28/20 A2999 RMK A01 T02780196  RH  061%=      5-min Rain = 0
KSE2 131427Z 16009KT 28/20 A2999 RMK A01 T02800195  RH  060%=      5-min Rain = 0
KSE2 131428Z 17009KT 28/19 A2999 RMK A01 T02800194  RH  060%=      5-min Rain = 0
KSE2 131429Z 16008KT 28/19 A2999 RMK A01 T02790194  RH  060%=      5-min Rain = 0
KSE2 131430Z 16008KT 28/19 A2999 RMK A01 T02800193  RH  059%=      5-min Rain = 0
KSE2 131431Z 17008KT 28/19 A2999 RMK A01 T02820193  RH  058%=      5-min Rain = 0
KSE2 131432Z 17008KT 28/19 A2999 RMK A01 T02830193  RH  058%=      5-min Rain = 0
KSE2 131433Z 16009KT 28/19 A2999 RMK A01 T02840192  RH  058%=      5-min Rain = 0
KSE2 131434Z 16009KT 28/19 A2999 RMK A01 T02830192  RH  058%=      5-min Rain = 0
KSE2 131435Z 18008KT 28/19 A2999 RMK A01 T02840192  RH  058%=      5-min Rain = 0
KSE2 131436Z 18008KT 29/19 A2999 RMK A01 T02850191  RH  057%=      5-min Rain = 0
KSE2 131437Z 17008KT 29/19 A2999 RMK A01 T02860192  RH  057%=      5-min Rain = 0
KSE2 131438Z 18007KT 29/19 A2999 RMK A01 T02860192  RH  057%=      5-min Rain = 0
KSE2 131439Z 18008KT 29/19 A30 RMK A01 T02860192  RH  057%=      5-min Rain = 0
KSE2 131440Z 18009KT 29/19 A30 RMK A01 T02860189  RH  056%=      5-min Rain = 0
KSE2 131441Z 15009KT 29/19 A30 RMK A01 T02870189  RH  055%=      5-min Rain = 0
KSE2 131442Z 17007KT 29/19 A30 RMK A01 T02880189  RH  055%=      5-min Rain = 0
KSE2 131443Z 18007KT 29/19 A30 RMK A01 T02890189  RH  055%=      5-min Rain = 0
KSE2 131444Z 17009KT 29/19 A30 RMK A01 T02890188  RH  054%=      5-min Rain = 0
KSE2 131445Z 18008KT 29/19 A30 RMK A01 T02890188  RH  054%=      5-min Rain = 0
KSE2 131446Z 17008KT 29/19 A30 RMK A01 T02900189  RH  054%=      5-min Rain = 0
KSE2 131447Z 17006KT 29/19 A30 RMK A01 T02890189  RH  055%=      5-min Rain = 0
KSE2 131448Z 16005KT 29/19 A30 RMK A01 T02900189  RH  054%=      5-min Rain = 0
KSE2 131449Z 18008KT 29/19 A30 RMK A01 T02930189  RH  054%=      5-min Rain = 0
KSE2 131450Z 18007KT 29/19 A30 RMK A01 T02930190  RH  054%=      5-min Rain = 0
KSE2 131451Z 18008KT 29/19 A30 RMK A01 T02940189  RH  053%=      5-min Rain = 0
KSE2 131452Z 17007KT 29/19 A30 RMK A01 T02930188  RH  053%=      5-min Rain = 0
KSE2 131453Z 16008KT 29/19 A30 RMK A01 T02920189  RH  054%=      5-min Rain = 0
KSE2 131454Z 17008G13KT 29/19 A30 RMK A01 T02930189  RH  054%=      5-min Rain = 0
KSE2 131455Z 17009KT 30/19 A30 RMK A01 T02950188  RH  053%=      5-min Rain = 0
KSE2 131456Z 17007KT 30/19 A30 RMK A01 T02950186  RH  052%=      5-min Rain = 0
KSE2 131457Z 18006KT 30/19 A30 RMK A01 T02950189  RH  053%=      5-min Rain = 0
KSE2 131458Z 16006KT 30/19 A30 RMK A01 T02980190  RH  052%=      5-min Rain = 0
KSE2 131459Z 17007KT 30/19 A30 RMK A01 T03010189  RH  051%=      5-min Rain = 0
KSE2 131500Z 16008KT 30/19 A30 RMK A01 T03010188  RH  051%=      5-min Rain = 0
KSE2 131501Z 15008KT 30/19 A30 RMK A01 T03010186  RH  050%=      5-min Rain = 0
KSE2 131502Z 16007KT 30/19 A30 RMK A01 T03010186  RH  050%=      5-min Rain = 0
KSE2 131503Z 15010KT 30/19 A30 RMK A01 T03020186  RH  050%=      5-min Rain = 0
KSE2 131504Z 15008KT 30/18 A30 RMK A01 T03010184  RH  050%=      5-min Rain = 0
KSE2 131505Z 15007KT 30/18 A30 RMK A01 T03000184  RH  050%=      5-min Rain = 0
KSE2 131506Z 17005KT 30/19 A30 RMK A01 T03030186  RH  050%=      5-min Rain = 0
KSE2 131507Z 16004KT 31/19 A30 RMK A01 T03060188  RH  050%=      5-min Rain = 0
KSE2 131508Z 18005KT 31/19 A30 RMK A01 T03090188  RH  049%=      5-min Rain = 0
KSE2 131509Z 18005KT 31/19 A30 RMK A01 T03090186  RH  048%=      5-min Rain = 0
KSE2 131510Z 19006KT 31/19 A30 RMK A01 T03100185  RH  047%=      5-min Rain = 0
KSE2 131511Z 19005KT 31/18 A30 RMK A01 T03100184  RH  047%=      5-min Rain = 0
KSE2 131512Z 19005KT 31/19 A30 RMK A01 T03100185  RH  047%=      5-min Rain = 0
KSE2 131513Z 17009KT 31/18 A30 RMK A01 T03110184  RH  047%=      5-min Rain = 0
KSE2 131514Z 17009KT 31/18 A30 RMK A01 T03110179  RH  045%=      5-min Rain = 0
KSE2 131515Z 17009KT 31/18 A30 RMK A01 T03080178  RH  046%=      5-min Rain = 0
KSE2 131516Z 18009KT 31/18 A30 RMK A01 T03070179  RH  046%=      5-min Rain = 0
KSE2 131517Z 18008KT 31/18 A30 RMK A01 T03070179  RH  047%=      5-min Rain = 0
KSE2 131518Z 17007KT 31/18 A30 RMK A01 T03070179  RH  047%=      5-min Rain = 0
KSE2 131519Z 16007KT 31/18 A30 RMK A01 T03070178  RH  046%=      5-min Rain = 0
KSE2 131520Z 17006KT 31/18 A30 RMK A01 T03080178  RH  046%=      5-min Rain = 0
KSE2 131521Z 17008KT 31/18 A30 RMK A01 T03100180  RH  046%=      5-min Rain = 0
KSE2 131522Z 17008KT 31/18 A30 RMK A01 T03110178  RH  045%=      5-min Rain = 0
KSE2 131523Z 20009KT 31/18 A30 RMK A01 T03110177  RH  045%=      5-min Rain = 0
KSE2 131524Z 19007KT 31/18 A30 RMK A01 T03100177  RH  045%=      5-min Rain = 0
KSE2 131525Z 21007KT 31/18 A30 RMK A01 T03100178  RH  045%=      5-min Rain = 0
KSE2 131526Z 19006KT 31/18 A30 RMK A01 T03110179  RH  045%=      5-min Rain = 0
KSE2 131527Z 18006KT 31/18 A30 RMK A01 T03120179  RH  045%=      5-min Rain = 0
KSE2 131528Z 17005KT 31/18 A30 RMK A01 T03140180  RH  045%=      5-min Rain = 0
KSE2 131529Z 15010KT 32/18 A30 RMK A01 T03160175  RH  043%=      5-min Rain = 0
KSE2 131530Z 15008KT 32/18 A30 RMK A01 T03170175  RH  043%=      5-min Rain = 0
KSE2 131531Z 15008KT 32/18 A30 RMK A01 T03170176  RH  043%=      5-min Rain = 0
KSE2 131532Z 17008KT 32/18 A30 RMK A01 T03170178  RH  043%=      5-min Rain = 0
KSE2 131533Z 17011KT 32/18 A30 RMK A01 T03180175  RH  043%=      5-min Rain = 0
KSE2 131534Z 17006G11KT 32/17 A30 RMK A01 T03180173  RH  042%=      5-min Rain = 0
KSE2 131535Z 18011KT 32/17 A30 RMK A01 T03180173  RH  042%=      5-min Rain = 0
KSE2 131536Z 18008KT 32/17 A30 RMK A01 T03180173  RH  042%=      5-min Rain = 0
KSE2 131537Z 19007KT 32/17 A30 RMK A01 T03180174  RH  042%=      5-min Rain = 0
KSE2 131538Z 17007KT 32/18 A30 RMK A01 T03200175  RH  042%=      5-min Rain = 0
KSE2 131539Z 17008KT 32/18 A30 RMK A01 T03210175  RH  042%=      5-min Rain = 0
KSE2 131540Z 19008KT 32/18 A30 RMK A01 T03220175  RH  042%=      5-min Rain = 0
KSE2 131541Z 19008KT 32/17 A30 RMK A01 T03220171  RH  041%=      5-min Rain = 0
KSE2 131542Z 20008KT 32/17 A30 RMK A01 T03210171  RH  041%=      5-min Rain = 0
KSE2 131543Z 20009KT 32/17 A30 RMK A01 T03200170  RH  041%=      5-min Rain = 0
KSE2 131544Z 20008KT 32/17 A30 RMK A01 T03200170  RH  041%=      5-min Rain = 0
KSE2 131545Z 20007KT 32/17 A30 RMK A01 T03200171  RH  041%=      5-min Rain = 0
KSE2 131546Z 19009KT 32/17 A30 RMK A01 T03200170  RH  041%=      5-min Rain = 0
KSE2 131547Z 16008KT 32/17 A30 RMK A01 T03200173  RH  042%=      5-min Rain = 0
KSE2 131548Z 15008KT 32/18 A30 RMK A01 T03220175  RH  041%=      5-min Rain = 0
KSE2 131549Z 16007KT 32/17 A30 RMK A01 T03220173  RH  041%=      5-min Rain = 0
KSE2 131550Z 17006KT 32/17 A30 RMK A01 T03210174  RH  041%=      5-min Rain = 0
KSE2 131551Z 18009KT 33/17 A30 RMK A01 T03250174  RH  041%=      5-min Rain = 0
KSE2 131552Z 18010KT 33/17 A30 RMK A01 T03270167  RH  038%=      5-min Rain = 0
KSE2 131553Z 18010KT 33/17 A30 RMK A01 T03260165  RH  038%=      5-min Rain = 0
KSE2 131554Z 18006KT 32/17 A30 RMK A01 T03240167  RH  039%=      5-min Rain = 0
KSE2 131555Z 20008G13KT 33/17 A30 RMK A01 T03260171  RH  040%=      5-min Rain = 0
KSE2 131556Z 18007KT 33/17 A30 RMK A01 T03260171  RH  040%=      5-min Rain = 0
KSE2 131557Z 20007KT 32/17 A30 RMK A01 T03240172  RH  040%=      5-min Rain = 0
KSE2 131558Z 20007KT 33/17 A30 RMK A01 T03260170  RH  039%=      5-min Rain = 0
KSE2 131559Z 16008KT 33/17 A30 RMK A01 T03270170  RH  039%=      5-min Rain = 0
KSE2 131600Z 16009KT 33/17 A30 RMK A01 T03280168  RH  039%=      5-min Rain = 0
KSE2 131601Z 16008KT 33/17 A30 RMK A01 T03270166  RH  038%=      5-min Rain = 0
KSE2 131602Z 16010KT 33/17 A30 RMK A01 T03280167  RH  038%=      5-min Rain = 0
KSE2 131603Z 16010KT 33/17 A30 RMK A01 T03280166  RH  038%=      5-min Rain = 0
KSE2 131604Z 17007KT 33/17 A30 RMK A01 T03250166  RH  039%=      5-min Rain = 0
KSE2 131605Z 19008KT 33/17 A30 RMK A01 T03270167  RH  038%=      5-min Rain = 0
KSE2 131606Z 18005KT 33/17 A30 RMK A01 T03270167  RH  038%=      5-min Rain = 0
KSE2 131607Z 18004KT 33/17 A30 RMK A01 T03280169  RH  039%=      5-min Rain = 0
KSE2 131608Z 18007G12KT 33/17 A30 RMK A01 T03300169  RH  038%=      5-min Rain = 0
KSE2 131609Z 19007KT 33/16 A30 RMK A01 T03310164  RH  037%=      5-min Rain = 0
KSE2 131610Z 20007G12KT 33/17 A30 RMK A01 T03300165  RH  037%=      5-min Rain = 0
KSE2 131611Z 19010KT 33/16 A30 RMK A01 T03300162  RH  037%=      5-min Rain = 0
KSE2 131612Z 17008KT 33/17 A30 RMK A01 T03280165  RH  038%=      5-min Rain = 0
KSE2 131613Z 17007KT 33/17 A30 RMK A01 T03300169  RH  038%=      5-min Rain = 0
KSE2 131614Z 17006KT 33/17 A30 RMK A01 T03310169  RH  038%=      5-min Rain = 0
KSE2 131615Z 18005KT 33/17 A3001 RMK A01 T03300171  RH  039%=      5-min Rain = 0
KSE2 131616Z 14005KT 33/17 A3001 RMK A01 T03330171  RH  038%=      5-min Rain = 0
KSE2 131617Z 14008KT 33/17 A3001 RMK A01 T03340170  RH  037%=      5-min Rain = 0
KSE2 131618Z 17006KT 33/17 A3001 RMK A01 T03330168  RH  037%=      5-min Rain = 0
KSE2 131619Z 18007KT 33/17 A3001 RMK A01 T03320169  RH  038%=      5-min Rain = 0
KSE2 131620Z 18006KT 33/17 A3001 RMK A01 T03340168  RH  037%=      5-min Rain = 0
KSE2 131621Z 15008KT 34/17 A3001 RMK A01 T03370167  RH  036%=      5-min Rain = 0
KSE2 131622Z 17008KT 34/17 A3001 RMK A01 T03380167  RH  036%=      5-min Rain = 0
KSE2 131623Z 18007G12KT 34/17 A3001 RMK A01 T03360167  RH  037%=      5-min Rain = 0
KSE2 131624Z 20005KT 34/17 A3001 RMK A01 T03360168  RH  037%=      5-min Rain = 0
KSE2 131625Z 19006KT 34/17 A3001 RMK A01 T03380168  RH  036%=      5-min Rain = 0
KSE2 131626Z 17006KT 34/17 A3001 RMK A01 T03380167  RH  036%=      5-min Rain = 0
KSE2 131627Z 16008KT 34/17 A30 RMK A01 T03360166  RH  036%=      5-min Rain = 0
KSE2 131628Z 15008KT 34/16 A30 RMK A01 T03360163  RH  036%=      5-min Rain = 0
KSE2 131629Z 16006KT 34/16 A30 RMK A01 T03370164  RH  036%=      5-min Rain = 0
KSE2 131630Z 18004KT 34/17 A30 RMK A01 T03390165  RH  035%=      5-min Rain = 0
KSE2 131631Z 18008KT 34/17 A30 RMK A01 T03410165  RH  035%=      5-min Rain = 0
KSE2 131632Z 18008KT 34/16 A3001 RMK A01 T03420164  RH  035%=      5-min Rain = 0
KSE2 131633Z 18007KT 34/16 A30 RMK A01 T03390163  RH  035%=      5-min Rain = 0
KSE2 131634Z 18006KT 34/16 A3001 RMK A01 T03380164  RH  035%=      5-min Rain = 0
KSE2 131635Z 18005KT 34/17 A30 RMK A01 T03380165  RH  036%=      5-min Rain = 0
KSE2 131636Z 20005KT 34/17 A30 RMK A01 T03380165  RH  036%=      5-min Rain = 0
KSE2 131637Z 17002KT 34/17 A30 RMK A01 T03390166  RH  036%=      5-min Rain = 0
KSE2 131638Z 15006KT 34/17 A30 RMK A01 T03430168  RH  035%=      5-min Rain = 0
KSE2 131639Z 13004KT 34/16 A30 RMK A01 T03420162  RH  034%=      5-min Rain = 0
KSE2 131640Z 16004KT 34/16 A30 RMK A01 T03390163  RH  035%=      5-min Rain = 0
KSE2 131641Z 17007KT 34/17 A30 RMK A01 T03400166  RH  035%=      5-min Rain = 0
KSE2 131642Z 17009KT 34/17 A30 RMK A01 T03420167  RH  035%=      5-min Rain = 0
KSE2 131643Z 18008KT 34/17 A30 RMK A01 T03420165  RH  035%=      5-min Rain = 0
KSE2 131644Z 19007KT 34/17 A30 RMK A01 T03410165  RH  035%=      5-min Rain = 0
KSE2 131645Z 19006KT 34/17 A3001 RMK A01 T03400166  RH  036%=      5-min Rain = 0
KSE2 131646Z 17006KT 34/17 A3001 RMK A01 T03400166  RH  035%=      5-min Rain = 0
KSE2 131647Z 19004KT 34/17 A3001 RMK A01 T03400165  RH  035%=      5-min Rain = 0
KSE2 131648Z 17006KT 34/17 A30 RMK A01 T03400165  RH  035%=      5-min Rain = 0
KSE2 131649Z 15006KT 34/17 A30 RMK A01 T03400166  RH  035%=      5-min Rain = 0
KSE2 131650Z 14006KT 34/17 A30 RMK A01 T03390165  RH  035%=      5-min Rain = 0
KSE2 131651Z 15004KT 34/17 A30 RMK A01 T03380165  RH  036%=      5-min Rain = 0
KSE2 131652Z 21006KT 34/17 A3001 RMK A01 T03400167  RH  036%=      5-min Rain = 0
KSE2 131653Z 23004KT 34/17 A30 RMK A01 T03420165  RH  035%=      5-min Rain = 0
KSE2 131654Z 17003G8KT 34/17 A30 RMK A01 T03420166  RH  035%=      5-min Rain = 0
KSE2 131655Z 14007KT 35/17 A30 RMK A01 T03450166  RH  035%=      5-min Rain = 0
KSE2 131656Z 17005KT 34/16 A30 RMK A01 T03430163  RH  034%=      5-min Rain = 0
KSE2 131657Z 16008KT 34/16 A30 RMK A01 T03440164  RH  034%=      5-min Rain = 0
KSE2 131658Z 18005KT 35/17 A30 RMK A01 T03510170  RH  034%=      5-min Rain = 0
KSE2 131659Z 18008KT 36/17 A3001 RMK A01 T03550168  RH  033%=      5-min Rain = 0
KSE2 131700Z 19011KT 35/16 A3001 RMK A01 T03530164  RH  033%=      5-min Rain = 0
KSE2 131701Z 18009KT 35/16 A3001 RMK A01 T03480162  RH  033%=      5-min Rain = 0
KSE2 131702Z 19007KT 35/16 A3001 RMK A01 T03460162  RH  034%=      5-min Rain = 0
KSE2 131703Z 21006KT 35/16 A3001 RMK A01 T03450163  RH  034%=      5-min Rain = 0
KSE2 131704Z 21005KT 35/17 A3001 RMK A01 T03450165  RH  034%=      5-min Rain = 0
KSE2 131705Z 21008KT 35/17 A3001 RMK A01 T03470167  RH  034%=      5-min Rain = 0
KSE2 131706Z 19006KT 35/17 A3001 RMK A01 T03480167  RH  034%=      5-min Rain = 0
KSE2 131707Z 21003KT 35/17 A3001 RMK A01 T03480167  RH  034%=      5-min Rain = 0
KSE2 131708Z 24005KT 35/17 A3001 RMK A01 T03480166  RH  034%=      5-min Rain = 0
KSE2 131709Z 23006KT 35/17 A30 RMK A01 T03460167  RH  034%=      5-min Rain = 0
KSE2 131710Z 24003KT 35/17 A30 RMK A01 T03460165  RH  034%=      5-min Rain = 0
KSE2 131711Z 16002KT 35/17 A30 RMK A01 T03450166  RH  034%=      5-min Rain = 0
KSE2 131712Z 18002KT 35/17 A30 RMK A01 T03470167  RH  034%=      5-min Rain = 0
KSE2 131713Z 23002KT 35/17 A30 RMK A01 T03490167  RH  034%=      5-min Rain = 0
KSE2 131714Z 17003KT 35/17 A30 RMK A01 T03520167  RH  034%=      5-min Rain = 0
KSE2 131715Z 17003KT 35/17 A30 RMK A01 T03530170  RH  034%=      5-min Rain = 0
KSE2 131716Z 14004KT 36/17 A30 RMK A01 T03570169  RH  033%=      5-min Rain = 0
KSE2 131717Z 12005G10KT 36/17 A30 RMK A01 T03560166  RH  032%=      5-min Rain = 0
KSE2 131718Z 14009KT 35/17 A30 RMK A01 T03530165  RH  033%=      5-min Rain = 0
KSE2 131719Z 13007KT 35/17 A30 RMK A01 T03510165  RH  033%=      5-min Rain = 0
KSE2 131720Z 13009KT 35/16 A30 RMK A01 T03520164  RH  033%=      5-min Rain = 0
KSE2 131721Z 14008KT 35/17 A30 RMK A01 T03510165  RH  033%=      5-min Rain = 0
KSE2 131722Z 15005KT 35/17 A30 RMK A01 T03530165  RH  033%=      5-min Rain = 0
KSE2 131723Z 13004KT 35/16 A30 RMK A01 T03510164  RH  033%=      5-min Rain = 0
KSE2 131724Z 15006KT 35/17 A30 RMK A01 T03520167  RH  033%=      5-min Rain = 0
KSE2 131725Z 17007KT 35/17 A30 RMK A01 T03540167  RH  033%=      5-min Rain = 0
KSE2 131726Z 13005KT 35/17 A30 RMK A01 T03520166  RH  033%=      5-min Rain = 0
KSE2 131727Z 12007KT 35/17 A30 RMK A01 T03500165  RH  033%=      5-min Rain = 0
KSE2 131728Z 12007KT 35/17 A30 RMK A01 T03500165  RH  033%=      5-min Rain = 0
KSE2 131729Z 15009KT 35/17 A30 RMK A01 T03510167  RH  034%=      5-min Rain = 0
KSE2 131730Z 16008KT 35/17 A30 RMK A01 T03510167  RH  033%=      5-min Rain = 0
KSE2 131731Z 14008KT 35/17 A30 RMK A01 T03500167  RH  034%=      5-min Rain = 0
KSE2 131732Z 15008KT 35/17 A30 RMK A01 T03500166  RH  033%=      5-min Rain = 0
KSE2 131733Z 14007KT 35/17 A30 RMK A01 T03510165  RH  033%=      5-min Rain = 0
KSE2 131734Z 14008KT 35/16 A30 RMK A01 T03530164  RH  033%=      5-min Rain = 0
KSE2 131735Z 12010KT 36/16 A30 RMK A01 T03550164  RH  032%=      5-min Rain = 0
KSE2 131736Z 13008KT 36/16 A30 RMK A01 T03570163  RH  032%=      5-min Rain = 0
KSE2 131737Z 16008KT 36/16 A30 RMK A01 T03580164  RH  032%=      5-min Rain = 0
KSE2 131738Z 13006KT 36/16 A30 RMK A01 T03580163  RH  032%=      5-min Rain = 0
KSE2 131739Z 12005KT 36/16 A30 RMK A01 T03550163  RH  032%=      5-min Rain = 0
KSE2 131740Z 15007G12KT 36/17 A30 RMK A01 T03560165  RH  032%=      5-min Rain = 0
KSE2 131741Z 15007KT 36/17 A30 RMK A01 T03590165  RH  032%=      5-min Rain = 0
KSE2 131742Z 16006KT 36/17 A30 RMK A01 T03620165  RH  031%=      5-min Rain = 0
KSE2 131743Z 15005KT 36/16 A30 RMK A01 T03610164  RH  031%=      5-min Rain = 0
KSE2 131744Z 12007KT 36/16 A30 RMK A01 T03590162  RH  031%=      5-min Rain = 0
KSE2 131745Z 12006KT 36/16 A30 RMK A01 T03560161  RH  031%=      5-min Rain = 0
KSE2 131746Z 15004KT 35/16 A30 RMK A01 T03540161  RH  032%=      5-min Rain = 0
KSE2 131747Z 21001KT 35/16 A30 RMK A01 T03530162  RH  032%=      5-min Rain = 0
KSE2 131748Z 16003G10KT 35/16 A30 RMK A01 T03530162  RH  032%=      5-min Rain = 0
KSE2 131749Z 13006KT 36/17 A30 RMK A01 T03580165  RH  032%=      5-min Rain = 0
KSE2 131750Z 14006KT 36/16 A30 RMK A01 T03580163  RH  032%=      5-min Rain = 0
KSE2 131751Z 17008KT 36/16 A30 RMK A01 T03590164  RH  032%=      5-min Rain = 0
KSE2 131752Z 18005KT 36/16 A30 RMK A01 T03570161  RH  031%=      5-min Rain = 0
KSE2 131753Z 17009KT 36/16 A2999 RMK A01 T03560163  RH  032%=      5-min Rain = 0
KSE2 131754Z 17009KT 36/16 A2999 RMK A01 T03570164  RH  032%=      5-min Rain = 0
KSE2 131755Z 18007KT 36/17 A30 RMK A01 T03600165  RH  032%=      5-min Rain = 0
KSE2 131756Z 16006KT 36/16 A30 RMK A01 T03620164  RH  031%=      5-min Rain = 0
KSE2 131757Z 17005KT 36/16 A2999 RMK A01 T03600164  RH  031%=      5-min Rain = 0
KSE2 131758Z 15009KT 36/16 A2999 RMK A01 T03600163  RH  031%=      5-min Rain = 0
KSE2 131759Z 14005KT 36/16 A2999 RMK A01 T03590159  RH  031%=      5-min Rain = 0
KSE2 131800Z 15004KT 36/16 A2999 RMK A01 T03550160  RH  031%=      5-min Rain = 0
KSE2 131801Z 13006KT 36/16 A2999 RMK A01 T03580161  RH  031%=      5-min Rain = 0
KSE2 131802Z 15003KT 36/16 A2999 RMK A01 T03550159  RH  031%=      5-min Rain = 0
KSE2 131803Z 17005KT 36/16 A2999 RMK A01 T03560162  RH  032%=      5-min Rain = 0
KSE2 131804Z 17007KT 36/16 A2999 RMK A01 T03590161  RH  031%=      5-min Rain = 0
KSE2 131805Z 19005KT 36/16 A2999 RMK A01 T03600159  RH  030%=      5-min Rain = 0
KSE2 131806Z 22001KT 36/16 A2999 RMK A01 T03590158  RH  030%=      5-min Rain = 0
KSE2 131807Z 22004KT 36/16 A2999 RMK A01 T03580159  RH  031%=      5-min Rain = 0
KSE2 131808Z 22005KT 36/16 A2999 RMK A01 T03590159  RH  031%=      5-min Rain = 0
KSE2 131809Z 23004KT 36/16 A2999 RMK A01 T03600160  RH  031%=      5-min Rain = 0
KSE2 131810Z 26004KT 36/16 A2999 RMK A01 T03610158  RH  030%=      5-min Rain = 0
KSE2 131811Z 21005KT 36/16 A2999 RMK A01 T03610158  RH  030%=      5-min Rain = 0
KSE2 131812Z 21006KT 36/16 A2999 RMK A01 T03600160  RH  031%=      5-min Rain = 0
KSE2 131813Z 22004KT 36/16 A2999 RMK A01 T03600159  RH  030%=      5-min Rain = 0
KSE2 131814Z 19003KT 36/16 A2999 RMK A01 T03590159  RH  031%=      5-min Rain = 0
KSE2 131815Z 13003KT 36/16 A2999 RMK A01 T03580160  RH  031%=      5-min Rain = 0
KSE2 131816Z 13007KT 36/16 A2999 RMK A01 T03590159  RH  031%=      5-min Rain = 0
KSE2 131817Z 13008KT 36/16 A2999 RMK A01 T03630158  RH  030%=      5-min Rain = 0
KSE2 131818Z 14006KT 37/16 A2999 RMK A01 T03650158  RH  029%=      5-min Rain = 0
KSE2 131819Z 13009KT 37/16 A2999 RMK A01 T03660156  RH  029%=      5-min Rain = 0
KSE2 131820Z 13006G11KT 37/15 A2999 RMK A01 T03650151  RH  028%=      5-min Rain = 0
KSE2 131821Z 15006G11KT 36/15 A2999 RMK A01 T03630153  RH  029%=      5-min Rain = 0
KSE2 131822Z 13008KT 36/16 A2999 RMK A01 T03620155  RH  029%=      5-min Rain = 0
KSE2 131823Z 14006KT 36/16 A2999 RMK A01 T03610155  RH  030%=      5-min Rain = 0
KSE2 131824Z 12007G12KT 36/16 A2999 RMK A01 T03600158  RH  030%=      5-min Rain = 0
KSE2 131825Z 14007KT 36/16 A2999 RMK A01 T03630158  RH  030%=      5-min Rain = 0
KSE2 131826Z 13007KT 36/16 A2999 RMK A01 T03620158  RH  030%=      5-min Rain = 0
KSE2 131827Z 11006KT 36/16 A2999 RMK A01 T03620157  RH  030%=      5-min Rain = 0
KSE2 131828Z 11008KT 36/16 A2999 RMK A01 T03620157  RH  030%=      5-min Rain = 0
KSE2 131829Z 16009KT 36/16 A2999 RMK A01 T03610156  RH  030%=      5-min Rain = 0
KSE2 131830Z 16005KT 36/15 A2999 RMK A01 T03600152  RH  029%=      5-min Rain = 0
KSE2 131831Z 15002KT 36/15 A2999 RMK A01 T03580151  RH  029%=      5-min Rain = 0
KSE2 131832Z 29001KT 36/15 A2999 RMK A01 T03580153  RH  030%=      5-min Rain = 0
KSE2 131833Z 33002KT 36/15 A2999 RMK A01 T03590154  RH  029%=      5-min Rain = 0
KSE2 131834Z 11003KT 36/16 A2999 RMK A01 T03610156  RH  030%=      5-min Rain = 0
KSE2 131835Z 14006KT 36/16 A2999 RMK A01 T03640157  RH  029%=      5-min Rain = 0
KSE2 131836Z 16005KT 36/16 A2999 RMK A01 T03640158  RH  029%=      5-min Rain = 0
KSE2 131837Z 14006KT 37/16 A2999 RMK A01 T03650159  RH  030%=      5-min Rain = 0
KSE2 131838Z 11004KT 36/16 A2999 RMK A01 T03640158  RH  029%=      5-min Rain = 0
KSE2 131839Z 13001KT 37/16 A2999 RMK A01 T03660163  RH  030%=      5-min Rain = 0
KSE2 131840Z 01001KT 37/16 A2999 RMK A01 T03700161  RH  029%=      5-min Rain = 0
KSE2 131841Z 08000KT 37/16 A2999 RMK A01 T03690159  RH  029%=      5-min Rain = 0
KSE2 131842Z 07001KT 37/16 A2999 RMK A01 T03690160  RH  029%=      5-min Rain = 0
KSE2 131843Z 13001KT 37/16 A2999 RMK A01 T03730162  RH  029%=      5-min Rain = 0
KSE2 131844Z 13008KT 38/16 A2999 RMK A01 T03770161  RH  028%=      5-min Rain = 0
KSE2 131845Z 12010KT 37/16 A2999 RMK A01 T03740158  RH  028%=      5-min Rain = 0
KSE2 131846Z 12008KT 37/16 A2999 RMK A01 T03680157  RH  029%=      5-min Rain = 0
KSE2 131847Z 11006KT 37/16 A2999 RMK A01 T03670159  RH  029%=      5-min Rain = 0
KSE2 131848Z 09004KT 37/16 A2999 RMK A01 T03680159  RH  029%=      5-min Rain = 0
KSE2 131849Z 08003KT 37/16 A2998 RMK A01 T03660158  RH  029%=      5-min Rain = 0
KSE2 131850Z 07002KT 36/16 A2998 RMK A01 T03640158  RH  030%=      5-min Rain = 0
KSE2 131851Z 17003KT 37/16 A2998 RMK A01 T03670161  RH  030%=      5-min Rain = 0
KSE2 131852Z 16008KT 37/16 A2998 RMK A01 T03730163  RH  029%=      5-min Rain = 0
KSE2 131853Z 17009KT 38/16 A2998 RMK A01 T03750160  RH  028%=      5-min Rain = 0
KSE2 131854Z 13009KT 37/16 A2998 RMK A01 T03740158  RH  028%=      5-min Rain = 0
KSE2 131855Z 12009KT 37/16 A2998 RMK A01 T03710156  RH  028%=      5-min Rain = 0
KSE2 131856Z 11008KT 37/16 A2999 RMK A01 T03680155  RH  028%=      5-min Rain = 0
KSE2 131857Z 09006KT 37/15 A2999 RMK A01 T03650153  RH  028%=      5-min Rain = 0
KSE2 131858Z 10004KT 36/16 A2998 RMK A01 T03620155  RH  029%=      5-min Rain = 0
KSE2 131859Z 06004G9KT 36/16 A2998 RMK A01 T03640155  RH  029%=      5-min Rain = 0
KSE2 131900Z 06005KT 37/15 A2998 RMK A01 T03650152  RH  028%=      5-min Rain = 0
KSE2 131901Z 13004KT 36/15 A2998 RMK A01 T03620151  RH  029%=      5-min Rain = 0
KSE2 131902Z 15007KT 37/15 A2998 RMK A01 T03660153  RH  028%=      5-min Rain = 0
KSE2 131903Z 17006KT 37/15 A2998 RMK A01 T03710152  RH  027%=      5-min Rain = 0
KSE2 131904Z 16003KT 37/15 A2998 RMK A01 T03690150  RH  027%=      5-min Rain = 0
KSE2 131905Z 19003G8KT 37/15 A2998 RMK A01 T03690149  RH  027%=      5-min Rain = 0
KSE2 131906Z 23005KT 37/15 A2998 RMK A01 T03700149  RH  027%=      5-min Rain = 0
KSE2 131907Z 26002KT 37/15 A2998 RMK A01 T03680148  RH  027%=      5-min Rain = 0
KSE2 131908Z 12002KT 37/15 A2998 RMK A01 T03690152  RH  028%=      5-min Rain = 0
KSE2 131909Z 12007KT 37/15 A2998 RMK A01 T03720151  RH  027%=      5-min Rain = 0
KSE2 131910Z 12009G15KT 37/15 A2998 RMK A01 T03730151  RH  027%=      5-min Rain = 0
KSE2 131911Z 13012KT 38/15 A2998 RMK A01 T03750150  RH  026%=      5-min Rain = 0
KSE2 131912Z 15011KT 37/15 A2998 RMK A01 T03740148  RH  026%=      5-min Rain = 0
KSE2 131913Z 13010KT 37/15 A2998 RMK A01 T03740150  RH  027%=      5-min Rain = 0
KSE2 131914Z 14007KT 37/15 A2998 RMK A01 T03740149  RH  026%=      5-min Rain = 0
KSE2 131915Z 14007KT 37/15 A2998 RMK A01 T03710147  RH  026%=      5-min Rain = 0
KSE2 131916Z 15006KT 37/15 A2998 RMK A01 T03710147  RH  027%=      5-min Rain = 0
KSE2 131917Z 19004KT 37/15 A2998 RMK A01 T03710147  RH  026%=      5-min Rain = 0
KSE2 131918Z 17003KT 37/15 A2998 RMK A01 T03700145  RH  026%=      5-min Rain = 0
KSE2 131919Z 15005KT 37/15 A2998 RMK A01 T03710148  RH  027%=      5-min Rain = 0
KSE2 131920Z 11005KT 38/15 A2998 RMK A01 T03770145  RH  025%=      5-min Rain = 0
KSE2 131921Z 09007KT 38/15 A2998 RMK A01 T03790145  RH  025%=      5-min Rain = 0
KSE2 131922Z 08005KT 37/14 A2998 RMK A01 T03720141  RH  025%=      5-min Rain = 0
KSE2 131923Z 12003KT 37/14 A2998 RMK A01 T03680141  RH  026%=      5-min Rain = 0
KSE2 131924Z 13002KT 37/14 A2998 RMK A01 T03670141  RH  026%=      5-min Rain = 0
KSE2 131925Z 05004KT 37/15 A2998 RMK A01 T03720146  RH  026%=      5-min Rain = 0
KSE2 131926Z 07004KT 38/15 A2998 RMK A01 T03780149  RH  026%=      5-min Rain = 0
KSE2 131927Z 06005KT 38/15 A2998 RMK A01 T03780148  RH  026%=      5-min Rain = 0
KSE2 131928Z 06004KT 38/15 A2998 RMK A01 T03770146  RH  025%=      5-min Rain = 0
KSE2 131929Z 11006KT 37/15 A2998 RMK A01 T03740147  RH  026%=      5-min Rain = 0
KSE2 131930Z 09003KT 37/15 A2998 RMK A01 T03730148  RH  026%=      5-min Rain = 0
KSE2 131931Z 05003KT 37/15 A2997 RMK A01 T03730149  RH  027%=      5-min Rain = 0
KSE2 131932Z 09005KT 38/15 A2997 RMK A01 T03760152  RH  027%=      5-min Rain = 0
KSE2 131933Z 13005KT 38/15 A2997 RMK A01 T03790151  RH  026%=      5-min Rain = 0
KSE2 131934Z 17008KT 38/15 A2997 RMK A01 T03800152  RH  026%=      5-min Rain = 0
KSE2 131935Z 16010KT 38/15 A2997 RMK A01 T03810150  RH  025%=      5-min Rain = 0
KSE2 131936Z 15007KT 38/15 A2997 RMK A01 T03780146  RH  025%=      5-min Rain = 0
KSE2 131937Z 15007KT 38/15 A2997 RMK A01 T03750145  RH  026%=      5-min Rain = 0
KSE2 131938Z 14009KT 37/15 A2997 RMK A01 T03720145  RH  026%=      5-min Rain = 0
KSE2 131939Z 12010KT 37/14 A2997 RMK A01 T03730142  RH  025%=      5-min Rain = 0
KSE2 131940Z 14007KT 38/15 A2997 RMK A01 T03750147  RH  026%=      5-min Rain = 0
KSE2 131941Z 14005KT 38/15 A2997 RMK A01 T03780147  RH  025%=      5-min Rain = 0
KSE2 131942Z 08007KT 38/14 A2997 RMK A01 T03810144  RH  025%=      5-min Rain = 0
KSE2 131943Z 07006KT 38/14 A2997 RMK A01 T03800140  RH  024%=      5-min Rain = 0
KSE2 131944Z 07007KT 38/14 A2997 RMK A01 T03790138  RH  024%=      5-min Rain = 0
KSE2 131945Z 08009KT 38/14 A2997 RMK A01 T03800141  RH  024%=      5-min Rain = 0
KSE2 131946Z 09008KT 38/14 A2997 RMK A01 T03800142  RH  024%=      5-min Rain = 0
KSE2 131947Z 09008KT 38/14 A2997 RMK A01 T03760141  RH  025%=      5-min Rain = 0
KSE2 131948Z 10007KT 38/14 A2997 RMK A01 T03750143  RH  025%=      5-min Rain = 0
KSE2 131949Z 09005KT 38/14 A2997 RMK A01 T03760141  RH  025%=      5-min Rain = 0
KSE2 131950Z 06002KT 38/14 A2997 RMK A01 T03760138  RH  024%=      5-min Rain = 0
KSE2 131951Z 29002KT 38/14 A2997 RMK A01 T03750140  RH  025%=      5-min Rain = 0
KSE2 131952Z 33001KT 38/14 A2996 RMK A01 T03750141  RH  025%=      5-min Rain = 0
KSE2 131953Z 36003KT 38/14 A2996 RMK A01 T03760143  RH  025%=      5-min Rain = 0
KSE2 131954Z 34002KT 38/14 A2996 RMK A01 T03800144  RH  025%=      5-min Rain = 0
KSE2 131955Z 23003KT 38/15 A2996 RMK A01 T03820145  RH  025%=      5-min Rain = 0
KSE2 131956Z 18003KT 38/15 A2996 RMK A01 T03830147  RH  025%=      5-min Rain = 0
KSE2 131957Z 14005G11KT 38/15 A2996 RMK A01 T03820147  RH  025%=      5-min Rain = 0
KSE2 131958Z 12011KT 38/15 A2996 RMK A01 T03820148  RH  025%=      5-min Rain = 0
KSE2 131959Z 12010KT 38/15 A2996 RMK A01 T03830149  RH  025%=      5-min Rain = 0
KSE2 132000Z 11007KT 38/15 A2996 RMK A01 T03820147  RH  025%=      5-min Rain = 0
KSE2 132001Z 09004KT 38/15 A2996 RMK A01 T03790146  RH  025%=      5-min Rain = 0
KSE2 132002Z 15004KT 38/15 A2996 RMK A01 T03770145  RH  025%=      5-min Rain = 0
KSE2 132003Z 15001KT 38/14 A2996 RMK A01 T03760144  RH  025%=      5-min Rain = 0
KSE2 132004Z 20005KT 38/15 A2996 RMK A01 T03750146  RH  026%=      5-min Rain = 0
KSE2 132005Z 23004KT 38/15 A2996 RMK A01 T03780147  RH  026%=      5-min Rain = 0
KSE2 132006Z 23004KT 38/15 A2996 RMK A01 T03780146  RH  025%=      5-min Rain = 0
KSE2 132007Z 15006KT 38/15 A2996 RMK A01 T03800147  RH  025%=      5-min Rain = 0
KSE2 132008Z 14009KT 38/15 A2996 RMK A01 T03810146  RH  025%=      5-min Rain = 0
KSE2 132009Z 14008KT 38/14 A2996 RMK A01 T03830143  RH  024%=      5-min Rain = 0
KSE2 132010Z 13010G15KT 38/14 A2996 RMK A01 T03800141  RH  024%=      5-min Rain = 0
KSE2 132011Z 12012KT 38/14 A2996 RMK A01 T03750140  RH  025%=      5-min Rain = 0
KSE2 132012Z 12007KT 38/14 A2996 RMK A01 T03750140  RH  025%=      5-min Rain = 0
KSE2 132013Z 13007KT 38/14 A2996 RMK A01 T03770142  RH  025%=      5-min Rain = 0
KSE2 132014Z 12003KT 38/14 A2996 RMK A01 T03780141  RH  024%=      5-min Rain = 0
KSE2 132015Z 16004KT 38/14 A2996 RMK A01 T03780142  RH  025%=      5-min Rain = 0
KSE2 132016Z 18003KT 38/14 A2996 RMK A01 T03790141  RH  024%=      5-min Rain = 0
KSE2 132017Z 17004KT 38/14 A2996 RMK A01 T03810141  RH  024%=      5-min Rain = 0
KSE2 132018Z 18005KT 38/14 A2996 RMK A01 T03840143  RH  024%=      5-min Rain = 0
KSE2 132019Z 16003KT 39/14 A2996 RMK A01 T03850142  RH  024%=      5-min Rain = 0
KSE2 132020Z 15005KT 38/14 A2996 RMK A01 T03830141  RH  024%=      5-min Rain = 0
KSE2 132021Z 15006KT 38/14 A2996 RMK A01 T03830140  RH  024%=      5-min Rain = 0
KSE2 132022Z 14007KT 38/14 A2996 RMK A01 T03820142  RH  024%=      5-min Rain = 0
KSE2 132023Z 14008KT 38/14 A2996 RMK A01 T03830141  RH  024%=      5-min Rain = 0
KSE2 132024Z 18003KT 38/14 A2996 RMK A01 T03830141  RH  024%=      5-min Rain = 0
KSE2 132025Z 20006KT 38/14 A2995 RMK A01 T03840140  RH  024%=      5-min Rain = 0
KSE2 132026Z 22003KT 38/14 A2995 RMK A01 T03810139  RH  024%=      5-min Rain = 0
KSE2 132027Z 24003KT 38/14 A2995 RMK A01 T03790138  RH  024%=      5-min Rain = 0
KSE2 132028Z 24002KT 38/14 A2995 RMK A01 T03780138  RH  024%=      5-min Rain = 0
KSE2 132029Z 22001KT 38/14 A2995 RMK A01 T03790139  RH  024%=      5-min Rain = 0
KSE2 132030Z 18002KT 38/14 A2995 RMK A01 T03790140  RH  024%=      5-min Rain = 0
KSE2 132031Z 19003KT 38/14 A2995 RMK A01 T03800141  RH  024%=      5-min Rain = 0
KSE2 132032Z 19002KT 38/14 A2995 RMK A01 T03800141  RH  024%=      5-min Rain = 0
KSE2 132033Z 19002KT 38/14 A2995 RMK A01 T03800141  RH  024%=      5-min Rain = 0
KSE2 132034Z 15002KT 38/14 A2995 RMK A01 T03800141  RH  024%=      5-min Rain = 0
KSE2 132035Z 08006KT 38/14 A2995 RMK A01 T03800140  RH  024%=      5-min Rain = 0
KSE2 132036Z 09005KT 39/14 A2995 RMK A01 T03860141  RH  024%=      5-min Rain = 0
KSE2 132037Z 08008KT 39/14 A2995 RMK A01 T03880138  RH  023%=      5-min Rain = 0
KSE2 132038Z 09005KT 39/14 A2995 RMK A01 T03870138  RH  023%=      5-min Rain = 0
KSE2 132039Z 10008KT 39/14 A2995 RMK A01 T03890138  RH  023%=      5-min Rain = 0
KSE2 132040Z 11006KT 39/14 A2995 RMK A01 T03870136  RH  023%=      5-min Rain = 0
KSE2 132041Z 08007KT 39/14 A2995 RMK A01 T03890139  RH  023%=      5-min Rain = 0
KSE2 132042Z 09007KT 39/14 A2995 RMK A01 T03920139  RH  023%=      5-min Rain = 0
KSE2 132043Z 12005KT 39/14 A2995 RMK A01 T03890141  RH  023%=      5-min Rain = 0
KSE2 132044Z 14005KT 39/14 A2995 RMK A01 T03860142  RH  024%=      5-min Rain = 0
KSE2 132045Z 12002KT 39/14 A2995 RMK A01 T03850143  RH  024%=      5-min Rain = 0
KSE2 132046Z 12001KT 39/15 A2995 RMK A01 T03890145  RH  024%=      5-min Rain = 0
KSE2 132047Z 15004KT 39/14 A2995 RMK A01 T03920142  RH  023%=      5-min Rain = 0
KSE2 132048Z 14008KT 39/14 A2995 RMK A01 T03890142  RH  023%=      5-min Rain = 0
KSE2 132049Z 13008KT 38/14 A2995 RMK A01 T03840141  RH  024%=      5-min Rain = 0
KSE2 132050Z 13007KT 38/14 A2995 RMK A01 T03820143  RH  024%=      5-min Rain = 0
KSE2 132051Z 15010KT 39/15 A2995 RMK A01 T03870145  RH  024%=      5-min Rain = 0
KSE2 132052Z 18007KT 39/14 A2995 RMK A01 T03870143  RH  024%=      5-min Rain = 0
KSE2 132053Z 20005KT 39/14 A2995 RMK A01 T03850142  RH  024%=      5-min Rain = 0
KSE2 132054Z 19008KT 38/14 A2994 RMK A01 T03840143  RH  024%=      5-min Rain = 0
KSE2 132055Z 17009KT 38/14 A2994 RMK A01 T03830144  RH  024%=      5-min Rain = 0
KSE2 132056Z 15010KT 39/14 A2994 RMK A01 T03870142  RH  024%=      5-min Rain = 0
KSE2 132057Z 15008KT 38/14 A2994 RMK A01 T03830140  RH  024%=      5-min Rain = 0
KSE2 132058Z 14007KT 38/14 A2994 RMK A01 T03840141  RH  024%=      5-min Rain = 0
KSE2 132059Z 14007KT 39/14 A2994 RMK A01 T03870142  RH  024%=      5-min Rain = 0
KSE2 132100Z 14006KT 39/14 A2994 RMK A01 T03900142  RH  023%=      5-min Rain = 0
KSE2 132101Z 18005KT 39/14 A2994 RMK A01 T03870140  RH  023%=      5-min Rain = 0
KSE2 132102Z 18006KT 39/14 A2994 RMK A01 T03870142  RH  024%=      5-min Rain = 0
KSE2 132103Z 20006KT 39/14 A2994 RMK A01 T03870142  RH  023%=      5-min Rain = 0
KSE2 132104Z 15009KT 39/14 A2994 RMK A01 T03860143  RH  024%=      5-min Rain = 0
KSE2 132105Z 18007KT 39/14 A2994 RMK A01 T03870143  RH  024%=      5-min Rain = 0
KSE2 132106Z 16007KT 39/14 A2994 RMK A01 T03880144  RH  024%=      5-min Rain = 0
KSE2 132107Z 15008KT 39/15 A2994 RMK A01 T03880145  RH  024%=      5-min Rain = 0
KSE2 132108Z 14009KT 38/15 A2994 RMK A01 T03840145  RH  024%=      5-min Rain = 0
KSE2 132109Z 15006KT 38/15 A2994 RMK A01 T03830146  RH  025%=      5-min Rain = 0
KSE2 132110Z 13007KT 38/15 A2994 RMK A01 T03840148  RH  025%=      5-min Rain = 0
KSE2 132111Z 12005KT 38/15 A2994 RMK A01 T03840148  RH  025%=      5-min Rain = 0
KSE2 132112Z 19003KT 39/15 A2994 RMK A01 T03850149  RH  025%=      5-min Rain = 0
KSE2 132113Z 21003KT 39/15 A2994 RMK A01 T03860148  RH  025%=      5-min Rain = 0
KSE2 132114Z 17002KT 39/15 A2994 RMK A01 T03880148  RH  024%=      5-min Rain = 0
KSE2 132115Z 19005KT 39/15 A2994 RMK A01 T03890148  RH  024%=      5-min Rain = 0
KSE2 132116Z 24006KT 39/15 A2994 RMK A01 T03860146  RH  024%=      5-min Rain = 0
KSE2 132117Z 25004G9KT 38/15 A2994 RMK A01 T03830147  RH  025%=      5-min Rain = 0
KSE2 132118Z 23003KT 38/15 A2994 RMK A01 T03820147  RH  025%=      5-min Rain = 0
KSE2 132119Z 22001KT 38/15 A2994 RMK A01 T03820147  RH  025%=      5-min Rain = 0
KSE2 132120Z 26001KT 38/15 A2994 RMK A01 T03830146  RH  025%=      5-min Rain = 0
KSE2 132121Z 06003KT 38/15 A2994 RMK A01 T03820147  RH  025%=      5-min Rain = 0
KSE2 132122Z 07003KT 38/15 A2994 RMK A01 T03840149  RH  025%=      5-min Rain = 0
KSE2 132123Z 10003KT 39/15 A2994 RMK A01 T03870147  RH  024%=      5-min Rain = 0
KSE2 132124Z 15006KT 39/15 A2994 RMK A01 T03850147  RH  025%=      5-min Rain = 0
KSE2 132125Z 13006KT 38/15 A2994 RMK A01 T03830148  RH  025%=      5-min Rain = 0
KSE2 132126Z 11002G8KT 38/15 A2994 RMK A01 T03820149  RH  025%=      5-min Rain = 0
KSE2 132127Z 11007KT 38/15 A2994 RMK A01 T03840151  RH  025%=      5-min Rain = 0
KSE2 132128Z 14006KT 39/15 A2994 RMK A01 T03880151  RH  025%=      5-min Rain = 0
KSE2 132129Z 15004KT 39/15 A2994 RMK A01 T03880150  RH  025%=      5-min Rain = 0
KSE2 132130Z 14006G11KT 39/15 A2993 RMK A01 T03870150  RH  025%=      5-min Rain = 0
KSE2 132131Z 14007G14KT 39/15 A2994 RMK A01 T03900150  RH  024%=      5-min Rain = 0
KSE2 132132Z 12010KT 39/15 A2994 RMK A01 T03900148  RH  024%=      5-min Rain = 0
KSE2 132133Z 11009KT 39/15 A2993 RMK A01 T03870145  RH  024%=      5-min Rain = 0
KSE2 132134Z 10009KT 39/15 A2993 RMK A01 T03880146  RH  024%=      5-min Rain = 0
KSE2 132135Z 10012KT 39/15 A2993 RMK A01 T03900146  RH  024%=      5-min Rain = 0
KSE2 132136Z 10009G14KT 39/15 A2993 RMK A01 T03870145  RH  024%=      5-min Rain = 0
KSE2 132137Z 10008KT 39/15 A2993 RMK A01 T03890146  RH  024%=      5-min Rain = 0
KSE2 132138Z 10009G14KT 39/15 A2993 RMK A01 T03890147  RH  024%=      5-min Rain = 0
KSE2 132139Z 10012KT 39/15 A2993 RMK A01 T03910146  RH  024%=      5-min Rain = 0
KSE2 132140Z 09012KT 39/14 A2993 RMK A01 T03900144  RH  023%=      5-min Rain = 0
KSE2 132141Z 09010KT 39/15 A2993 RMK A01 T03870145  RH  024%=      5-min Rain = 0
KSE2 132142Z 11012KT 39/15 A2993 RMK A01 T03860145  RH  024%=      5-min Rain = 0
KSE2 132143Z 10009KT 38/14 A2993 RMK A01 T03840144  RH  024%=      5-min Rain = 0
KSE2 132144Z 09007KT 38/15 A2993 RMK A01 T03830145  RH  024%=      5-min Rain = 0
KSE2 132145Z 11009KT 38/15 A2993 RMK A01 T03810145  RH  025%=      5-min Rain = 0
KSE2 132146Z 10007KT 38/14 A2993 RMK A01 T03800144  RH  025%=      5-min Rain = 0
KSE2 132147Z 08008KT 38/14 A2993 RMK A01 T03780144  RH  025%=      5-min Rain = 0
KSE2 132148Z 07006KT 38/14 A2993 RMK A01 T03750142  RH  025%=      5-min Rain = 0
KSE2 132149Z 10003KT 37/14 A2993 RMK A01 T03730143  RH  025%=      5-min Rain = 0
KSE2 132150Z 09002KT 38/14 A2993 RMK A01 T03750143  RH  025%=      5-min Rain = 0
KSE2 132151Z 10003KT 38/15 A2993 RMK A01 T03790145  RH  025%=      5-min Rain = 0
KSE2 132152Z 03002KT 38/15 A2993 RMK A01 T03820145  RH  025%=      5-min Rain = 0
KSE2 132153Z 07003KT 38/15 A2993 RMK A01 T03840146  RH  024%=      5-min Rain = 0
KSE2 132154Z 08004KT 39/15 A2993 RMK A01 T03860145  RH  024%=      5-min Rain = 0
KSE2 132155Z 10004KT 39/14 A2993 RMK A01 T03850143  RH  024%=      5-min Rain = 0
KSE2 132156Z 10008KT 38/15 A2993 RMK A01 T03840146  RH  025%=      5-min Rain = 0
KSE2 132157Z 09008KT 39/15 A2993 RMK A01 T03850149  RH  025%=      5-min Rain = 0
KSE2 132158Z 09009KT 39/15 A2993 RMK A01 T03880150  RH  025%=      5-min Rain = 0
KSE2 132159Z 09010KT 39/15 A2993 RMK A01 T03880150  RH  025%=      5-min Rain = 0
KSE2 132200Z 12011KT 39/15 A2993 RMK A01 T03850148  RH  025%=      5-min Rain = 0
KSE2 132201Z 12009KT 38/15 A2993 RMK A01 T03840149  RH  025%=      5-min Rain = 0
KSE2 132202Z 13015KT 39/15 A2993 RMK A01 T03850149  RH  025%=      5-min Rain = 0
KSE2 132203Z 13011KT 39/15 A2993 RMK A01 T03850149  RH  025%=      5-min Rain = 0
KSE2 132204Z 13008KT 39/15 A2993 RMK A01 T03870151  RH  025%=      5-min Rain = 0
KSE2 132205Z 13007KT 39/15 A2993 RMK A01 T03890149  RH  024%=      5-min Rain = 0
KSE2 132206Z 12006KT 39/15 A2993 RMK A01 T03870147  RH  024%=      5-min Rain = 0
KSE2 132207Z 12004KT 38/15 A2993 RMK A01 T03830146  RH  025%=      5-min Rain = 0
KSE2 132208Z 09005KT 38/15 A2993 RMK A01 T03810147  RH  025%=      5-min Rain = 0
KSE2 132209Z 11006KT 38/15 A2993 RMK A01 T03790147  RH  025%=      5-min Rain = 0
KSE2 132210Z 12009KT 38/15 A2993 RMK A01 T03790148  RH  025%=      5-min Rain = 0
KSE2 132211Z 12010KT 38/15 A2993 RMK A01 T03790146  RH  025%=      5-min Rain = 0
KSE2 132212Z 13008KT 38/15 A2993 RMK A01 T03780147  RH  025%=      5-min Rain = 0
KSE2 132213Z 12006KT 38/15 A2993 RMK A01 T03790147  RH  025%=      5-min Rain = 0
KSE2 132214Z 12007KT 38/15 A2993 RMK A01 T03790146  RH  025%=      5-min Rain = 0
KSE2 132215Z 11007KT 38/15 A2993 RMK A01 T03780146  RH  025%=      5-min Rain = 0
KSE2 132216Z 14005KT 38/15 A2993 RMK A01 T03780146  RH  025%=      5-min Rain = 0
KSE2 132217Z 11005KT 38/15 A2993 RMK A01 T03810148  RH  025%=      5-min Rain = 0
KSE2 132218Z 13004KT 38/15 A2992 RMK A01 T03840149  RH  025%=      5-min Rain = 0
KSE2 132219Z 11007G13KT 39/15 A2992 RMK A01 T03870151  RH  025%=      5-min Rain = 0
KSE2 132220Z 12009KT 39/15 A2992 RMK A01 T03880151  RH  025%=      5-min Rain = 0
KSE2 132221Z 11011KT 39/15 A2992 RMK A01 T03860149  RH  025%=      5-min Rain = 0
KSE2 132222Z 12011KT 39/15 A2992 RMK A01 T03850150  RH  025%=      5-min Rain = 0
KSE2 132223Z 11010KT 39/15 A2992 RMK A01 T03850149  RH  025%=      5-min Rain = 0
KSE2 132224Z 13010KT 39/15 A2992 RMK A01 T03870151  RH  025%=      5-min Rain = 0
KSE2 132225Z 13010KT 39/15 A2992 RMK A01 T03850148  RH  025%=      5-min Rain = 0
KSE2 132226Z 10010KT 38/15 A2992 RMK A01 T03820148  RH  025%=      5-min Rain = 0
KSE2 132227Z 09007KT 38/15 A2992 RMK A01 T03810148  RH  025%=      5-min Rain = 0
KSE2 132228Z 08009KT 38/15 A2992 RMK A01 T03810148  RH  025%=      5-min Rain = 0
KSE2 132229Z 09006KT 38/15 A2992 RMK A01 T03810148  RH  025%=      5-min Rain = 0
KSE2 132230Z 12006KT 38/15 A2992 RMK A01 T03810148  RH  025%=      5-min Rain = 0
KSE2 132231Z 12006KT 38/15 A2992 RMK A01 T03830149  RH  025%=      5-min Rain = 0
KSE2 132232Z 10008KT 38/15 A2992 RMK A01 T03840150  RH  025%=      5-min Rain = 0
KSE2 132233Z 10008KT 39/15 A2992 RMK A01 T03860149  RH  025%=      5-min Rain = 0
KSE2 132234Z 11009KT 39/15 A2992 RMK A01 T03860149  RH  025%=      5-min Rain = 0
KSE2 132235Z 12011KT 39/15 A2992 RMK A01 T03870148  RH  024%=      5-min Rain = 0
KSE2 132236Z 12012KT 39/15 A2992 RMK A01 T03850148  RH  025%=      5-min Rain = 0
KSE2 132237Z 11010KT 38/15 A2992 RMK A01 T03830147  RH  025%=      5-min Rain = 0
KSE2 132238Z 09009G14KT 38/15 A2992 RMK A01 T03820147  RH  025%=      5-min Rain = 0
KSE2 132239Z 09011KT 38/15 A2992 RMK A01 T03810147  RH  025%=      5-min Rain = 0
KSE2 132240Z 14010KT 38/15 A2992 RMK A01 T03830149  RH  025%=      5-min Rain = 0
KSE2 132241Z 13009KT 38/15 A2992 RMK A01 T03830147  RH  025%=      5-min Rain = 0
KSE2 132242Z 13012KT 38/15 A2992 RMK A01 T03820148  RH  025%=      5-min Rain = 0
KSE2 132243Z 11009KT 38/15 A2992 RMK A01 T03820148  RH  025%=      5-min Rain = 0
KSE2 132244Z 12007KT 38/15 A2992 RMK A01 T03820147  RH  025%=      5-min Rain = 0
KSE2 132245Z 14005KT 38/15 A2992 RMK A01 T03820148  RH  025%=      5-min Rain = 0
KSE2 132246Z 14005KT 38/15 A2992 RMK A01 T03810147  RH  025%=      5-min Rain = 0
KSE2 132247Z 13004KT 38/15 A2992 RMK A01 T03790145  RH  025%=      5-min Rain = 0
KSE2 132248Z 12007G13KT 38/15 A2992 RMK A01 T03780146  RH  025%=      5-min Rain = 0
KSE2 132249Z 13010KT 38/15 A2992 RMK A01 T03780147  RH  025%=      5-min Rain = 0
KSE2 132250Z 13007KT 38/15 A2992 RMK A01 T03800148  RH  025%=      5-min Rain = 0
KSE2 132251Z 13011G16KT 38/15 A2992 RMK A01 T03810148  RH  025%=      5-min Rain = 0
KSE2 132252Z 13013KT 38/15 A2992 RMK A01 T03830149  RH  025%=      5-min Rain = 0
KSE2 132253Z 13010KT 38/15 A2992 RMK A01 T03830150  RH  025%=      5-min Rain = 0
KSE2 132254Z 11009KT 38/15 A2992 RMK A01 T03820150  RH  025%=      5-min Rain = 0
KSE2 132255Z 11009KT 38/15 A2992 RMK A01 T03820149  RH  025%=      5-min Rain = 0
KSE2 132256Z 12008KT 38/15 A2992 RMK A01 T03830150  RH  025%=      5-min Rain = 0
KSE2 132257Z 10009KT 39/15 A2992 RMK A01 T03850150  RH  025%=      5-min Rain = 0
KSE2 132258Z 10008KT 38/15 A2992 RMK A01 T03820149  RH  025%=      5-min Rain = 0
KSE2 132259Z 11009G15KT 38/15 A2992 RMK A01 T03790149  RH  026%=      5-min Rain = 0
KSE2 132300Z 12013KT 38/15 A2992 RMK A01 T03780152  RH  026%=      5-min Rain = 0
KSE2 132301Z 13011KT 38/15 A2992 RMK A01 T03770153  RH  027%=      5-min Rain = 0
KSE2 132302Z 15010KT 38/15 A2992 RMK A01 T03770154  RH  027%=      5-min Rain = 0
KSE2 132303Z 11008KT 38/16 A2992 RMK A01 T03770155  RH  027%=      5-min Rain = 0
KSE2 132304Z 11011KT 38/16 A2992 RMK A01 T03770155  RH  027%=      5-min Rain = 0
KSE2 132305Z 11008KT 38/15 A2992 RMK A01 T03760154  RH  027%=      5-min Rain = 0
KSE2 132306Z 12009KT 38/16 A2992 RMK A01 T03750155  RH  027%=      5-min Rain = 0
KSE2 132307Z 13012KT 38/16 A2992 RMK A01 T03760156  RH  027%=      5-min Rain = 0
KSE2 132308Z 14014G19KT 38/16 A2992 RMK A01 T03770157  RH  027%=      5-min Rain = 0
KSE2 132309Z 13012KT 38/16 A2992 RMK A01 T03760157  RH  027%=      5-min Rain = 0
KSE2 132310Z 11009KT 37/16 A2992 RMK A01 T03740156  RH  028%=      5-min Rain = 0
KSE2 132311Z 12012G17KT 38/16 A2992 RMK A01 T03750157  RH  028%=      5-min Rain = 0
KSE2 132312Z 12011KT 38/16 A2992 RMK A01 T03750158  RH  028%=      5-min Rain = 0
KSE2 132313Z 15010KT 38/16 A2992 RMK A01 T03760156  RH  027%=      5-min Rain = 0
KSE2 132314Z 14006KT 38/15 A2992 RMK A01 T03760151  RH  026%=      5-min Rain = 0
KSE2 132315Z 12007KT 38/15 A2992 RMK A01 T03770152  RH  026%=      5-min Rain = 0
KSE2 132316Z 12007KT 38/15 A2992 RMK A01 T03780153  RH  027%=      5-min Rain = 0
KSE2 132317Z 11009KT 38/16 A2992 RMK A01 T03790157  RH  027%=      5-min Rain = 0
KSE2 132318Z 11011G18KT 38/16 A2992 RMK A01 T03790158  RH  027%=      5-min Rain = 0
KSE2 132319Z 12013KT 38/16 A2992 RMK A01 T03790159  RH  027%=      5-min Rain = 0
KSE2 132320Z 12011G16KT 38/16 A2992 RMK A01 T03770160  RH  028%=      5-min Rain = 0
KSE2 132321Z 10010KT 38/16 A2992 RMK A01 T03750160  RH  028%=      5-min Rain = 0
KSE2 132322Z 09010KT 38/16 A2992 RMK A01 T03750160  RH  028%=      5-min Rain = 0
KSE2 132323Z 09008KT 38/16 A2992 RMK A01 T03750160  RH  028%=      5-min Rain = 0
KSE2 132324Z 13006KT 37/16 A2992 RMK A01 T03740161  RH  029%=      5-min Rain = 0
KSE2 132325Z 12007KT 37/16 A2992 RMK A01 T03740162  RH  029%=      5-min Rain = 0
KSE2 132326Z 13008KT 38/16 A2992 RMK A01 T03750160  RH  028%=      5-min Rain = 0
KSE2 132327Z 13010G15KT 38/16 A2992 RMK A01 T03750161  RH  028%=      5-min Rain = 0
KSE2 132328Z 13013KT 38/16 A2992 RMK A01 T03750162  RH  028%=      5-min Rain = 0
KSE2 132329Z 12013KT 37/16 A2993 RMK A01 T03730161  RH  029%=      5-min Rain = 0
KSE2 132330Z 11012KT 37/16 A2993 RMK A01 T03710161  RH  029%=      5-min Rain = 0
KSE2 132331Z 11012KT 37/16 A2993 RMK A01 T03700162  RH  029%=      5-min Rain = 0
KSE2 132332Z 12013KT 37/16 A2993 RMK A01 T03710161  RH  029%=      5-min Rain = 0
KSE2 132333Z 12010KT 37/16 A2993 RMK A01 T03700161  RH  029%=      5-min Rain = 0
KSE2 132334Z 11011KT 37/16 A2993 RMK A01 T03710161  RH  029%=      5-min Rain = 0
KSE2 132335Z 10008KT 37/16 A2993 RMK A01 T03710160  RH  029%=      5-min Rain = 0
KSE2 132336Z 11010KT 37/16 A2993 RMK A01 T03710161  RH  029%=      5-min Rain = 0
KSE2 132337Z 11008KT 37/16 A2993 RMK A01 T03710162  RH  029%=      5-min Rain = 0
KSE2 132338Z 11011KT 37/16 A2993 RMK A01 T03710162  RH  029%=      5-min Rain = 0
KSE2 132339Z 10015KT 37/17 A2993 RMK A01 T03700165  RH  030%=      5-min Rain = 0
KSE2 132340Z 12009KT 37/17 A2993 RMK A01 T03690165  RH  030%=      5-min Rain = 0
KSE2 132341Z 12012KT 37/17 A2993 RMK A01 T03700167  RH  030%=      5-min Rain = 0
KSE2 132342Z 12014KT 37/17 A2993 RMK A01 T03700165  RH  030%=      5-min Rain = 0
KSE2 132343Z 12013KT 37/17 A2993 RMK A01 T03690166  RH  030%=      5-min Rain = 0
KSE2 132344Z 13010KT 37/17 A2993 RMK A01 T03680166  RH  030%=      5-min Rain = 0
KSE2 132345Z 11012KT 37/17 A2993 RMK A01 T03680166  RH  030%=      5-min Rain = 0
KSE2 132346Z 11010KT 37/16 A2993 RMK A01 T03670164  RH  030%=      5-min Rain = 0
KSE2 132347Z 12008KT 37/17 A2993 RMK A01 T03660165  RH  031%=      5-min Rain = 0
KSE2 132348Z 11008KT 37/17 A2993 RMK A01 T03670166  RH  030%=      5-min Rain = 0
KSE2 132349Z 13008KT 37/17 A2993 RMK A01 T03670166  RH  031%=      5-min Rain = 0
KSE2 132350Z 14011KT 37/17 A2993 RMK A01 T03660166  RH  031%=      5-min Rain = 0
KSE2 132351Z 12012G19KT 37/17 A2993 RMK A01 T03660166  RH  031%=      5-min Rain = 0
KSE2 132352Z 12014KT 37/17 A2993 RMK A01 T03660165  RH  031%=      5-min Rain = 0
KSE2 132353Z 11011KT 37/17 A2993 RMK A01 T03660165  RH  030%=      5-min Rain = 0
KSE2 132354Z 11011KT 37/16 A2993 RMK A01 T03660164  RH  030%=      5-min Rain = 0
KSE2 132355Z 12011KT 37/16 A2993 RMK A01 T03660164  RH  030%=      5-min Rain = 0
KSE2 132356Z 11013KT 37/16 A2994 RMK A01 T03660163  RH  030%=      5-min Rain = 0
KSE2 132357Z 11011KT 37/16 A2994 RMK A01 T03650163  RH  030%=      5-min Rain = 0
KSE2 132358Z 11009G14KT 37/17 A2994 RMK A01 T03660165  RH  031%=      5-min Rain = 0
KSE2 132359Z 11009KT 37/17 A2994 RMK A01 T03660165  RH  031%=      5-min Rain = 0
KSE2 140000Z 12009KT 37/17 A2994 RMK A01 T03660166  RH  031%=      5-min Rain = 0
KSE2 140001Z 12008KT 37/17 A2994 RMK A01 T03670165  RH  030%=      5-min Rain = 0
KSE2 140002Z 13008KT 37/17 A2994 RMK A01 T03660165  RH  031%=      5-min Rain = 0
KSE2 140003Z 13008KT 37/17 A2994 RMK A01 T03660166  RH  031%=      5-min Rain = 0
KSE2 140004Z 13007KT 37/17 A2994 RMK A01 T03650167  RH  031%=      5-min Rain = 0
KSE2 140005Z 14010KT 37/17 A2994 RMK A01 T03650167  RH  031%=      5-min Rain = 0
KSE2 140006Z 13010KT 37/17 A2994 RMK A01 T03650166  RH  031%=      5-min Rain = 0
KSE2 140007Z 13008KT 36/17 A2994 RMK A01 T03640166  RH  031%=      5-min Rain = 0
KSE2 140008Z 13009KT 36/17 A2994 RMK A01 T03640166  RH  031%=      5-min Rain = 0
KSE2 140009Z 11010KT 36/17 A2994 RMK A01 T03630166  RH  031%=      5-min Rain = 0
KSE2 140010Z 11011KT 36/17 A2994 RMK A01 T03620165  RH  031%=      5-min Rain = 0
KSE2 140011Z 11011KT 36/17 A2994 RMK A01 T03610165  RH  031%=      5-min Rain = 0
KSE2 140012Z 10010KT 36/17 A2994 RMK A01 T03610165  RH  031%=      5-min Rain = 0
KSE2 140013Z 10011KT 36/17 A2994 RMK A01 T03610165  RH  031%=      5-min Rain = 0
KSE2 140014Z 10008KT 36/17 A2994 RMK A01 T03610165  RH  031%=      5-min Rain = 0
KSE2 140015Z 12008KT 36/17 A2994 RMK A01 T03610165  RH  031%=      5-min Rain = 0
KSE2 140016Z 11011KT 36/17 A2994 RMK A01 T03610165  RH  031%=      5-min Rain = 0
KSE2 140017Z 11009KT 36/16 A2994 RMK A01 T03610164  RH  031%=      5-min Rain = 0
KSE2 140018Z 11011KT 36/16 A2994 RMK A01 T03600164  RH  031%=      5-min Rain = 0
KSE2 140019Z 11010KT 36/16 A2994 RMK A01 T03600164  RH  031%=      5-min Rain = 0
KSE2 140020Z 11009KT 36/16 A2994 RMK A01 T03590164  RH  032%=      5-min Rain = 0
KSE2 140021Z 11011KT 36/17 A2994 RMK A01 T03600165  RH  032%=      5-min Rain = 0
KSE2 140022Z 11009KT 36/17 A2994 RMK A01 T03600165  RH  032%=      5-min Rain = 0
KSE2 140023Z 12009KT 36/17 A2994 RMK A01 T03600166  RH  032%=      5-min Rain = 0
KSE2 140024Z 12009KT 36/17 A2994 RMK A01 T03590166  RH  032%=      5-min Rain = 0
KSE2 140025Z 12009KT 36/17 A2994 RMK A01 T03580166  RH  032%=      5-min Rain = 0
KSE2 140026Z 12009KT 36/17 A2994 RMK A01 T03580167  RH  032%=      5-min Rain = 0
KSE2 140027Z 12011KT 36/17 A2994 RMK A01 T03580166  RH  032%=      5-min Rain = 0
KSE2 140028Z 12008KT 36/17 A2994 RMK A01 T03570166  RH  032%=      5-min Rain = 0
KSE2 140029Z 12008KT 36/17 A2994 RMK A01 T03580167  RH  032%=      5-min Rain = 0
KSE2 140030Z 13009KT 36/17 A2994 RMK A01 T03570167  RH  032%=      5-min Rain = 0
KSE2 140031Z 12006KT 36/17 A2994 RMK A01 T03570167  RH  032%=      5-min Rain = 0
KSE2 140032Z 12009KT 36/17 A2994 RMK A01 T03570168  RH  033%=      5-min Rain = 0
KSE2 140033Z 12008KT 36/17 A2994 RMK A01 T03560167  RH  033%=      5-min Rain = 0
KSE2 140034Z 12007KT 36/17 A2994 RMK A01 T03560167  RH  033%=      5-min Rain = 0
KSE2 140035Z 11010KT 36/17 A2994 RMK A01 T03560167  RH  033%=      5-min Rain = 0
KSE2 140036Z 11011KT 36/17 A2994 RMK A01 T03560166  RH  032%=      5-min Rain = 0
KSE2 140037Z 11011KT 36/17 A2994 RMK A01 T03550165  RH  032%=      5-min Rain = 0
KSE2 140038Z 12010KT 35/17 A2994 RMK A01 T03540165  RH  033%=      5-min Rain = 0
KSE2 140039Z 13011KT 35/17 A2994 RMK A01 T03540165  RH  033%=      5-min Rain = 0
KSE2 140040Z 13011KT 35/17 A2994 RMK A01 T03520165  RH  033%=      5-min Rain = 0
KSE2 140041Z 13011KT 35/17 A2994 RMK A01 T03520165  RH  033%=      5-min Rain = 0
KSE2 140042Z 14010KT 35/17 A2994 RMK A01 T03510165  RH  033%=      5-min Rain = 0
KSE2 140043Z 13011KT 35/17 A2994 RMK A01 T03510165  RH  033%=      5-min Rain = 0
KSE2 140044Z 12009KT 35/17 A2994 RMK A01 T03510165  RH  033%=      5-min Rain = 0
KSE2 140045Z 14008KT 35/17 A2994 RMK A01 T03500166  RH  033%=      5-min Rain = 0
KSE2 140046Z 14010G15KT 35/17 A2994 RMK A01 T03500165  RH  033%=      5-min Rain = 0
KSE2 140047Z 13010KT 35/17 A2994 RMK A01 T03490165  RH  033%=      5-min Rain = 0
KSE2 140048Z 13009KT 35/16 A2994 RMK A01 T03490164  RH  033%=      5-min Rain = 0
KSE2 140049Z 12008KT 35/16 A2994 RMK A01 T03480164  RH  034%=      5-min Rain = 0
KSE2 140050Z 14009KT 35/16 A2995 RMK A01 T03480164  RH  034%=      5-min Rain = 0
KSE2 140051Z 13009KT 35/16 A2995 RMK A01 T03470164  RH  034%=      5-min Rain = 0
KSE2 140052Z 13009KT 35/16 A2995 RMK A01 T03470163  RH  033%=      5-min Rain = 0
KSE2 140053Z 13008KT 35/16 A2995 RMK A01 T03470163  RH  034%=      5-min Rain = 0
KSE2 140054Z 13008KT 35/16 A2995 RMK A01 T03470164  RH  034%=      5-min Rain = 0
KSE2 140055Z 13009KT 35/16 A2995 RMK A01 T03460163  RH  034%=      5-min Rain = 0
KSE2 140056Z 12009KT 35/16 A2995 RMK A01 T03460163  RH  034%=      5-min Rain = 0
KSE2 140057Z 13008KT 35/16 A2995 RMK A01 T03460163  RH  034%=      5-min Rain = 0
KSE2 140058Z 12009KT 35/16 A2995 RMK A01 T03450162  RH  034%=      5-min Rain = 0
KSE2 140059Z 12007KT 35/16 A2995 RMK A01 T03450163  RH  034%=      5-min Rain = 0
KSE2 140100Z 12008KT 35/16 A2995 RMK A01 T03450162  RH  034%=      5-min Rain = 0
KSE2 140101Z 12007KT 35/16 A2995 RMK A01 T03450162  RH  034%=      5-min Rain = 0
KSE2 140102Z 12008KT 34/16 A2995 RMK A01 T03440162  RH  034%=      5-min Rain = 0
KSE2 140103Z 12012KT 34/16 A2995 RMK A01 T03440162  RH  034%=      5-min Rain = 0
KSE2 140104Z 12012KT 34/16 A2995 RMK A01 T03440161  RH  034%=      5-min Rain = 0
KSE2 140105Z 12009KT 34/16 A2995 RMK A01 T03440162  RH  034%=      5-min Rain = 0
KSE2 140106Z 12009KT 34/16 A2995 RMK A01 T03440162  RH  034%=      5-min Rain = 0
KSE2 140107Z 13008KT 34/16 A2995 RMK A01 T03440162  RH  034%=      5-min Rain = 0
KSE2 140108Z 13010KT 34/16 A2994 RMK A01 T03440162  RH  034%=      5-min Rain = 0
KSE2 140109Z 13011KT 34/16 A2995 RMK A01 T03440162  RH  034%=      5-min Rain = 0
KSE2 140110Z 13010KT 34/16 A2995 RMK A01 T03430162  RH  034%=      5-min Rain = 0
KSE2 140111Z 13008KT 34/16 A2995 RMK A01 T03430162  RH  034%=      5-min Rain = 0
KSE2 140112Z 13007KT 34/16 A2995 RMK A01 T03430162  RH  034%=      5-min Rain = 0
KSE2 140113Z 13009KT 34/16 A2995 RMK A01 T03420162  RH  034%=      5-min Rain = 0
KSE2 140114Z 13010KT 34/16 A2995 RMK A01 T03410162  RH  034%=      5-min Rain = 0
KSE2 140115Z 13009KT 34/16 A2995 RMK A01 T03410162  RH  034%=      5-min Rain = 0
KSE2 140116Z 12009KT 34/16 A2995 RMK A01 T03410162  RH  034%=      5-min Rain = 0
KSE2 140117Z 12008KT 34/16 A2995 RMK A01 T03410162  RH  034%=      5-min Rain = 0
KSE2 140118Z 13011KT 34/16 A2995 RMK A01 T03400162  RH  035%=      5-min Rain = 0
KSE2 140119Z 13009KT 34/16 A2995 RMK A01 T03400162  RH  034%=      5-min Rain = 0
KSE2 140120Z 13008KT 34/16 A2995 RMK A01 T03400162  RH  035%=      5-min Rain = 0
KSE2 140121Z 13008KT 34/16 A2995 RMK A01 T03400162  RH  035%=      5-min Rain = 0
KSE2 140122Z 12008KT 34/16 A2995 RMK A01 T03390161  RH  035%=      5-min Rain = 0
KSE2 140123Z 12007KT 34/16 A2995 RMK A01 T03390161  RH  035%=      5-min Rain = 0
KSE2 140124Z 13009KT 34/16 A2995 RMK A01 T03380161  RH  035%=      5-min Rain = 0
KSE2 140125Z 12009KT 34/16 A2995 RMK A01 T03380161  RH  035%=      5-min Rain = 0
KSE2 140126Z 12008KT 34/16 A2995 RMK A01 T03380161  RH  035%=      5-min Rain = 0
KSE2 140127Z 12008KT 34/16 A2995 RMK A01 T03380161  RH  035%=      5-min Rain = 0
KSE2 140128Z 13006KT 34/16 A2995 RMK A01 T03370161  RH  035%=      5-min Rain = 0
KSE2 140129Z 12007KT 34/16 A2995 RMK A01 T03370161  RH  035%=      5-min Rain = 0
KSE2 140130Z 13006KT 34/16 A2995 RMK A01 T03360161  RH  035%=      5-min Rain = 0
KSE2 140131Z 13007KT 34/16 A2995 RMK A01 T03360161  RH  035%=      5-min Rain = 0
KSE2 140132Z 13006KT 34/16 A2996 RMK A01 T03360161  RH  035%=      5-min Rain = 0
KSE2 140133Z 12006KT 34/16 A2996 RMK A01 T03350161  RH  035%=      5-min Rain = 0
KSE2 140134Z 12006KT 34/16 A2996 RMK A01 T03350161  RH  035%=      5-min Rain = 0
KSE2 140135Z 12006KT 33/16 A2996 RMK A01 T03340161  RH  035%=      5-min Rain = 0
KSE2 140136Z 12006KT 33/16 A2996 RMK A01 T03340161  RH  036%=      5-min Rain = 0
KSE2 140137Z 12006KT 33/16 A2996 RMK A01 T03330161  RH  036%=      5-min Rain = 0
KSE2 140138Z 13006KT 33/16 A2996 RMK A01 T03330161  RH  036%=      5-min Rain = 0
KSE2 140139Z 13006KT 33/16 A2996 RMK A01 T03320161  RH  036%=      5-min Rain = 0
KSE2 140140Z 13006KT 33/16 A2996 RMK A01 T03320161  RH  036%=      5-min Rain = 0
KSE2 140141Z 13006KT 33/16 A2996 RMK A01 T03310161  RH  036%=      5-min Rain = 0
KSE2 140142Z 12005KT 33/16 A2996 RMK A01 T03300161  RH  036%=      5-min Rain = 0
KSE2 140143Z 13006KT 33/16 A2996 RMK A01 T03300161  RH  036%=      5-min Rain = 0
KSE2 140144Z 13006KT 33/16 A2996 RMK A01 T03290161  RH  037%=      5-min Rain = 0
KSE2 140145Z 13006KT 33/16 A2996 RMK A01 T03290162  RH  037%=      5-min Rain = 0
KSE2 140146Z 13005KT 33/16 A2996 RMK A01 T03290162  RH  037%=      5-min Rain = 0
KSE2 140147Z 13005KT 33/16 A2996 RMK A01 T03280162  RH  037%=      5-min Rain = 0
KSE2 140148Z 13006KT 33/16 A2996 RMK A01 T03280162  RH  037%=      5-min Rain = 0
KSE2 140149Z 13006KT 33/16 A2996 RMK A01 T03270162  RH  037%=      5-min Rain = 0
KSE2 140150Z 13005KT 33/16 A2996 RMK A01 T03270162  RH  037%=      5-min Rain = 0
KSE2 140151Z 13006KT 33/16 A2996 RMK A01 T03270162  RH  037%=      5-min Rain = 0
KSE2 140152Z 13006KT 33/16 A2996 RMK A01 T03260162  RH  037%=      5-min Rain = 0
KSE2 140153Z 12006KT 33/16 A2996 RMK A01 T03260162  RH  038%=      5-min Rain = 0
KSE2 140154Z 13005KT 33/16 A2996 RMK A01 T03250163  RH  038%=      5-min Rain = 0
KSE2 140155Z 13006KT 32/16 A2996 RMK A01 T03240162  RH  038%=      5-min Rain = 0
KSE2 140156Z 13007KT 32/16 A2996 RMK A01 T03240163  RH  038%=      5-min Rain = 0
KSE2 140157Z 13007KT 32/16 A2996 RMK A01 T03240163  RH  038%=      5-min Rain = 0
KSE2 140158Z 13007KT 32/16 A2996 RMK A01 T03240163  RH  038%=      5-min Rain = 0
KSE2 140159Z 13007KT 32/16 A2996 RMK A01 T03240163  RH  038%=      5-min Rain = 0
KSE2 140200Z 13007KT 32/16 A2996 RMK A01 T03240164  RH  038%=      5-min Rain = 0
KSE2 140201Z 13006KT 32/16 A2996 RMK A01 T03240164  RH  038%=      5-min Rain = 0
KSE2 140202Z 13006KT 32/16 A2996 RMK A01 T03240164  RH  038%=      5-min Rain = 0
KSE2 140203Z 13006KT 32/16 A2996 RMK A01 T03230163  RH  038%=      5-min Rain = 0
KSE2 140204Z 13006KT 32/16 A2996 RMK A01 T03230163  RH  038%=      5-min Rain = 0
KSE2 140205Z 13006KT 32/16 A2996 RMK A01 T03220164  RH  039%=      5-min Rain = 0
KSE2 140206Z 13006KT 32/16 A2996 RMK A01 T03220164  RH  039%=      5-min Rain = 0
KSE2 140207Z 13006KT 32/16 A2996 RMK A01 T03220164  RH  039%=      5-min Rain = 0
KSE2 140208Z 13006KT 32/16 A2996 RMK A01 T03220164  RH  039%=      5-min Rain = 0
KSE2 140209Z 13006KT 32/16 A2996 RMK A01 T03210164  RH  039%=      5-min Rain = 0
KSE2 140210Z 13006KT 32/16 A2996 RMK A01 T03210164  RH  039%=      5-min Rain = 0
KSE2 140211Z 14006KT 32/16 A2996 RMK A01 T03210164  RH  039%=      5-min Rain = 0
KSE2 140212Z 13007KT 32/16 A2996 RMK A01 T03210164  RH  039%=      5-min Rain = 0
KSE2 140213Z 14007KT 32/16 A2997 RMK A01 T03210164  RH  039%=      5-min Rain = 0
KSE2 140214Z 14006KT 32/16 A2997 RMK A01 T03200164  RH  039%=      5-min Rain = 0
KSE2 140215Z 14006KT 32/16 A2997 RMK A01 T03200164  RH  039%=      5-min Rain = 0
KSE2 140216Z 14006KT 32/17 A2997 RMK A01 T03200165  RH  039%=      5-min Rain = 0
KSE2 140217Z 14006KT 32/17 A2997 RMK A01 T03200165  RH  039%=      5-min Rain = 0
KSE2 140218Z 14006KT 32/17 A2997 RMK A01 T03200165  RH  039%=      5-min Rain = 0
KSE2 140219Z 14006KT 32/17 A2997 RMK A01 T03200165  RH  040%=      5-min Rain = 0
KSE2 140220Z 14006KT 32/17 A2997 RMK A01 T03190165  RH  040%=      5-min Rain = 0
KSE2 140221Z 14006KT 32/17 A2997 RMK A01 T03180165  RH  040%=      5-min Rain = 0
KSE2 140222Z 13006KT 32/17 A2997 RMK A01 T03180165  RH  040%=      5-min Rain = 0
KSE2 140223Z 14005KT 32/17 A2997 RMK A01 T03190165  RH  040%=      5-min Rain = 0
KSE2 140224Z 13006KT 32/17 A2997 RMK A01 T03180165  RH  040%=      5-min Rain = 0
KSE2 140225Z 13007KT 32/17 A2997 RMK A01 T03180166  RH  040%=      5-min Rain = 0
KSE2 140226Z 13006KT 32/17 A2997 RMK A01 T03180166  RH  040%=      5-min Rain = 0
KSE2 140227Z 13007KT 32/17 A2997 RMK A01 T03180166  RH  040%=      5-min Rain = 0
KSE2 140228Z 14006KT 32/17 A2997 RMK A01 T03180166  RH  040%=      5-min Rain = 0
KSE2 140229Z 13007KT 32/17 A2997 RMK A01 T03190166  RH  040%=      5-min Rain = 0
KSE2 140230Z 14007KT 32/17 A2997 RMK A01 T03180166  RH  040%=      5-min Rain = 0
KSE2 140231Z 14006KT 32/17 A2997 RMK A01 T03180166  RH  040%=      5-min Rain = 0
KSE2 140232Z 14006KT 32/17 A2997 RMK A01 T03180167  RH  040%=      5-min Rain = 0
KSE2 140233Z 13007KT 32/17 A2997 RMK A01 T03180166  RH  040%=      5-min Rain = 0
KSE2 140234Z 14006KT 32/17 A2997 RMK A01 T03180167  RH  040%=      5-min Rain = 0
KSE2 140235Z 14006KT 32/17 A2997 RMK A01 T03180167  RH  040%=      5-min Rain = 0
KSE2 140236Z 14006KT 32/17 A2998 RMK A01 T03170167  RH  041%=      5-min Rain = 0
KSE2 140237Z 14006KT 32/17 A2998 RMK A01 T03170167  RH  041%=      5-min Rain = 0
KSE2 140238Z 14006KT 32/17 A2998 RMK A01 T03170167  RH  041%=      5-min Rain = 0
KSE2 140239Z 14005KT 32/17 A2998 RMK A01 T03170167  RH  041%=      5-min Rain = 0
KSE2 140240Z 14006KT 32/17 A2998 RMK A01 T03170167  RH  041%=      5-min Rain = 0
KSE2 140241Z 14006KT 32/17 A2998 RMK A01 T03160167  RH  041%=      5-min Rain = 0
KSE2 140242Z 14006KT 32/17 A2998 RMK A01 T03160168  RH  041%=      5-min Rain = 0
KSE2 140243Z 14006KT 32/17 A2998 RMK A01 T03160168  RH  041%=      5-min Rain = 0
KSE2 140244Z 13006KT 32/17 A2998 RMK A01 T03160168  RH  041%=      5-min Rain = 0
KSE2 140245Z 14006KT 32/17 A2998 RMK A01 T03160168  RH  041%=      5-min Rain = 0
KSE2 140246Z 14007KT 32/17 A2998 RMK A01 T03160168  RH  041%=      5-min Rain = 0
KSE2 140247Z 13006KT 32/17 A2998 RMK A01 T03160168  RH  041%=      5-min Rain = 0
KSE2 140248Z 14006KT 32/17 A2998 RMK A01 T03150168  RH  041%=      5-min Rain = 0
KSE2 140249Z 14007KT 32/17 A2998 RMK A01 T03150168  RH  041%=      5-min Rain = 0
KSE2 140250Z 13006KT 32/17 A2999 RMK A01 T03150169  RH  041%=      5-min Rain = 0
KSE2 140251Z 14007KT 32/17 A2999 RMK A01 T03150169  RH  041%=      5-min Rain = 0
KSE2 140252Z 14007KT 32/17 A2999 RMK A01 T03150169  RH  042%=      5-min Rain = 0
KSE2 140253Z 14008KT 32/17 A2999 RMK A01 T03150169  RH  041%=      5-min Rain = 0
KSE2 140254Z 14006KT 32/17 A2999 RMK A01 T03160169  RH  041%=      5-min Rain = 0
KSE2 140255Z 13006KT 32/17 A2999 RMK A01 T03160169  RH  041%=      5-min Rain = 0
KSE2 140256Z 14006KT 32/17 A2999 RMK A01 T03150169  RH  041%=      5-min Rain = 0
KSE2 140257Z 14006KT 32/17 A2999 RMK A01 T03150169  RH  042%=      5-min Rain = 0
KSE2 140258Z 14005KT 32/17 A2999 RMK A01 T03150169  RH  042%=      5-min Rain = 0
KSE2 140259Z 14006KT 31/17 A2999 RMK A01 T03140169  RH  042%=      5-min Rain = 0
KSE2 140300Z 14005KT 31/17 A2999 RMK A01 T03140169  RH  042%=      5-min Rain = 0
KSE2 140301Z 14007KT 31/17 A2999 RMK A01 T03140169  RH  042%=      5-min Rain = 0
KSE2 140302Z 14006KT 31/17 A2999 RMK A01 T03140169  RH  042%=      5-min Rain = 0
KSE2 140303Z 14007KT 31/17 A2999 RMK A01 T03130169  RH  042%=      5-min Rain = 0
KSE2 140304Z 14006KT 31/17 A2999 RMK A01 T03140169  RH  042%=      5-min Rain = 0
KSE2 140305Z 14007KT 31/17 A2999 RMK A01 T03140169  RH  042%=      5-min Rain = 0
KSE2 140306Z 14007KT 31/17 A2999 RMK A01 T03140169  RH  042%=      5-min Rain = 0
KSE2 140307Z 14006KT 31/17 A2999 RMK A01 T03140169  RH  042%=      5-min Rain = 0
KSE2 140308Z 14007KT 31/17 A2999 RMK A01 T03130169  RH  042%=      5-min Rain = 0
KSE2 140309Z 14006KT 31/17 A30 RMK A01 T03130169  RH  042%=      5-min Rain = 0
KSE2 140310Z 14006KT 31/17 A30 RMK A01 T03130169  RH  042%=      5-min Rain = 0
KSE2 140311Z 14005KT 31/17 A30 RMK A01 T03130169  RH  042%=      5-min Rain = 0
KSE2 140312Z 14006KT 31/17 A30 RMK A01 T03120169  RH  042%=      5-min Rain = 0
KSE2 140313Z 14006KT 31/17 A30 RMK A01 T03120169  RH  042%=      5-min Rain = 0
KSE2 140314Z 14006KT 31/17 A30 RMK A01 T03120169  RH  042%=      5-min Rain = 0
KSE2 140315Z 14006KT 31/17 A30 RMK A01 T03120169  RH  042%=      5-min Rain = 0
KSE2 140316Z 14006KT 31/17 A30 RMK A01 T03120169  RH  042%=      5-min Rain = 0
KSE2 140317Z 14005KT 31/17 A30 RMK A01 T03120169  RH  042%=      5-min Rain = 0
KSE2 140318Z 14006KT 31/17 A30 RMK A01 T03120169  RH  042%=      5-min Rain = 0
KSE2 140319Z 14005KT 31/17 A30 RMK A01 T03110169  RH  042%=      5-min Rain = 0
KSE2 140320Z 14006KT 31/17 A30 RMK A01 T03100168  RH  042%=      5-min Rain = 0
KSE2 140321Z 14006KT 31/17 A30 RMK A01 T03100168  RH  042%=      5-min Rain = 0
KSE2 140322Z 14006KT 31/17 A30 RMK A01 T03110169  RH  042%=      5-min Rain = 0
KSE2 140323Z 13006KT 31/17 A30 RMK A01 T03110168  RH  042%=      5-min Rain = 0
KSE2 140324Z 14005KT 31/17 A30 RMK A01 T03110168  RH  042%=      5-min Rain = 0
KSE2 140325Z 14006KT 31/17 A30 RMK A01 T03110169  RH  042%=      5-min Rain = 0
KSE2 140326Z 14006KT 31/17 A30 RMK A01 T03110168  RH  042%=      5-min Rain = 0
KSE2 140327Z 14006KT 31/17 A30 RMK A01 T03110168  RH  042%=      5-min Rain = 0
KSE2 140328Z 13006KT 31/17 A30 RMK A01 T03110168  RH  042%=      5-min Rain = 0
KSE2 140329Z 13007KT 31/17 A30 RMK A01 T03110168  RH  042%=      5-min Rain = 0
KSE2 140330Z 14006KT 31/17 A30 RMK A01 T03110168  RH  042%=      5-min Rain = 0
KSE2 140331Z 14006KT 31/17 A30 RMK A01 T03110168  RH  042%=      5-min Rain = 0
KSE2 140332Z 14006KT 31/17 A30 RMK A01 T03110168  RH  042%=      5-min Rain = 0
KSE2 140333Z 14007KT 31/17 A30 RMK A01 T03100168  RH  042%=      5-min Rain = 0
KSE2 140334Z 14006KT 31/17 A30 RMK A01 T03100168  RH  043%=      5-min Rain = 0
KSE2 140335Z 14006KT 31/17 A30 RMK A01 T03090168  RH  043%=      5-min Rain = 0
KSE2 140336Z 14006KT 31/17 A30 RMK A01 T03090168  RH  043%=      5-min Rain = 0
KSE2 140337Z 14006KT 31/17 A30 RMK A01 T03090167  RH  043%=      5-min Rain = 0
KSE2 140338Z 14006KT 31/17 A30 RMK A01 T03090168  RH  043%=      5-min Rain = 0
KSE2 140339Z 13005KT 31/17 A30 RMK A01 T03090167  RH  043%=      5-min Rain = 0
KSE2 140340Z 14006KT 31/17 A30 RMK A01 T03090167  RH  043%=      5-min Rain = 0
KSE2 140341Z 14006KT 31/17 A30 RMK A01 T03090167  RH  043%=      5-min Rain = 0
KSE2 140342Z 14006KT 31/17 A30 RMK A01 T03090167  RH  043%=      5-min Rain = 0
KSE2 140343Z 14006KT 31/17 A30 RMK A01 T03080167  RH  043%=      5-min Rain = 0
KSE2 140344Z 14006KT 31/17 A30 RMK A01 T03080167  RH  043%=      5-min Rain = 0
KSE2 140345Z 14006KT 31/17 A30 RMK A01 T03080167  RH  043%=      5-min Rain = 0
KSE2 140346Z 14006KT 31/17 A30 RMK A01 T03080167  RH  043%=      5-min Rain = 0
KSE2 140347Z 15006KT 31/17 A30 RMK A01 T03080166  RH  043%=      5-min Rain = 0
KSE2 140348Z 14006KT 31/17 A30 RMK A01 T03080166  RH  043%=      5-min Rain = 0
KSE2 140349Z 14007KT 31/17 A30 RMK A01 T03080167  RH  043%=      5-min Rain = 0
KSE2 140350Z 15006KT 31/17 A30 RMK A01 T03080166  RH  043%=      5-min Rain = 0
KSE2 140351Z 14005KT 31/17 A30 RMK A01 T03080166  RH  043%=      5-min Rain = 0
KSE2 140352Z 14007KT 31/17 A3001 RMK A01 T03070166  RH  043%=      5-min Rain = 0
KSE2 140353Z 15006KT 31/17 A3001 RMK A01 T03070166  RH  043%=      5-min Rain = 0
KSE2 140354Z 14006KT 31/17 A3001 RMK A01 T03070166  RH  043%=      5-min Rain = 0
KSE2 140355Z 14006KT 31/17 A3001 RMK A01 T03060166  RH  043%=      5-min Rain = 0
KSE2 140356Z 14005KT 31/17 A3001 RMK A01 T03060166  RH  043%=      5-min Rain = 0
KSE2 140357Z 13006KT 31/17 A3001 RMK A01 T03060166  RH  043%=      5-min Rain = 0
KSE2 140358Z 14005KT 31/17 A3001 RMK A01 T03060166  RH  043%=      5-min Rain = 0
KSE2 140359Z 14006KT 31/17 A3001 RMK A01 T03060166  RH  043%=      5-min Rain = 0
KSE2 140400Z 14005KT 31/17 A3001 RMK A01 T03060166  RH  043%=      5-min Rain = 0
KSE2 140401Z 14005KT 31/17 A3001 RMK A01 T03050166  RH  043%=      5-min Rain = 0
KSE2 140402Z 14005KT 31/17 A3001 RMK A01 T03050166  RH  043%=      5-min Rain = 0
KSE2 140403Z 13005KT 31/17 A3001 RMK A01 T03050165  RH  043%=      5-min Rain = 0
KSE2 140404Z 13005KT 30/17 A3001 RMK A01 T03040165  RH  043%=      5-min Rain = 0
KSE2 140405Z 14005KT 30/17 A3001 RMK A01 T03040166  RH  043%=      5-min Rain = 0
KSE2 140406Z 13005KT 30/17 A3001 RMK A01 T03040166  RH  043%=      5-min Rain = 0
KSE2 140407Z 13005KT 30/17 A3001 RMK A01 T03030165  RH  043%=      5-min Rain = 0
KSE2 140408Z 13005KT 30/17 A3001 RMK A01 T03030165  RH  043%=      5-min Rain = 0
KSE2 140409Z 13005KT 30/17 A3001 RMK A01 T03030165  RH  044%=      5-min Rain = 0
KSE2 140410Z 13005KT 30/17 A3001 RMK A01 T03020165  RH  044%=      5-min Rain = 0
KSE2 140411Z 13006KT 30/17 A3001 RMK A01 T03010165  RH  044%=      5-min Rain = 0
KSE2 140412Z 14005KT 30/17 A3001 RMK A01 T03010165  RH  044%=      5-min Rain = 0
KSE2 140413Z 14005KT 30/17 A3001 RMK A01 T03010165  RH  044%=      5-min Rain = 0
KSE2 140414Z 14005KT 30/17 A3001 RMK A01 T03000165  RH  044%=      5-min Rain = 0
KSE2 140415Z 14005KT 30/17 A3001 RMK A01 T03000165  RH  044%=      5-min Rain = 0
KSE2 140416Z 13005KT 30/17 A3001 RMK A01 T03000165  RH  044%=      5-min Rain = 0
KSE2 140417Z 13005KT 30/17 A3001 RMK A01 T02990165  RH  044%=      5-min Rain = 0
KSE2 140418Z 13005KT 30/17 A3001 RMK A01 T02990165  RH  044%=      5-min Rain = 0
KSE2 140419Z 13006KT 30/17 A3001 RMK A01 T02990165  RH  045%=      5-min Rain = 0
KSE2 140420Z 13005KT 30/17 A3001 RMK A01 T02980165  RH  045%=      5-min Rain = 0
KSE2 140421Z 14006KT 30/17 A3001 RMK A01 T02980165  RH  045%=      5-min Rain = 0
KSE2 140422Z 13006KT 30/17 A3001 RMK A01 T02980165  RH  045%=      5-min Rain = 0
KSE2 140423Z 14005KT 30/17 A3001 RMK A01 T02990165  RH  044%=      5-min Rain = 0
KSE2 140424Z 14005KT 30/17 A3001 RMK A01 T02990165  RH  044%=      5-min Rain = 0
KSE2 140425Z 13005KT 30/17 A3001 RMK A01 T02990165  RH  044%=      5-min Rain = 0
KSE2 140426Z 13005KT 30/17 A3001 RMK A01 T02980165  RH  044%=      5-min Rain = 0
KSE2 140427Z 14005KT 30/17 A3001 RMK A01 T02980165  RH  045%=      5-min Rain = 0
KSE2 140428Z 14005KT 30/17 A3001 RMK A01 T02980165  RH  045%=      5-min Rain = 0
KSE2 140429Z 14004KT 30/16 A3001 RMK A01 T02980164  RH  045%=      5-min Rain = 0
KSE2 140430Z 13004KT 30/16 A3001 RMK A01 T02970164  RH  045%=      5-min Rain = 0
KSE2 140431Z 14005KT 30/16 A3001 RMK A01 T02970164  RH  045%=      5-min Rain = 0
KSE2 140432Z 14005KT 30/16 A3001 RMK A01 T02970164  RH  045%=      5-min Rain = 0
KSE2 140433Z 14005KT 30/16 A3001 RMK A01 T02970164  RH  045%=      5-min Rain = 0
KSE2 140434Z 14005KT 30/16 A3001 RMK A01 T02960164  RH  045%=      5-min Rain = 0
KSE2 140435Z 14004KT 30/16 A3001 RMK A01 T02960164  RH  045%=      5-min Rain = 0
KSE2 140436Z 15004KT 30/16 A3001 RMK A01 T02960164  RH  045%=      5-min Rain = 0
KSE2 140437Z 15004KT 30/16 A3001 RMK A01 T02950164  RH  045%=      5-min Rain = 0
KSE2 140438Z 15004KT 29/16 A3001 RMK A01 T02940164  RH  045%=      5-min Rain = 0
KSE2 140439Z 15004KT 29/16 A3001 RMK A01 T02940164  RH  045%=      5-min Rain = 0
KSE2 140440Z 15004KT 29/16 A3001 RMK A01 T02940164  RH  045%=      5-min Rain = 0
KSE2 140441Z 14004KT 29/16 A3001 RMK A01 T02940164  RH  046%=      5-min Rain = 0
KSE2 140442Z 15004KT 29/16 A3001 RMK A01 T02930164  RH  046%=      5-min Rain = 0
KSE2 140443Z 15004KT 29/16 A3001 RMK A01 T02930164  RH  046%=      5-min Rain = 0
KSE2 140444Z 15004KT 29/16 A3001 RMK A01 T02930164  RH  046%=      5-min Rain = 0
KSE2 140445Z 14004KT 29/16 A3001 RMK A01 T02920164  RH  046%=      5-min Rain = 0
KSE2 140446Z 14004KT 29/16 A3001 RMK A01 T02920164  RH  046%=      5-min Rain = 0
KSE2 140447Z 15004KT 29/16 A3001 RMK A01 T02920164  RH  046%=      5-min Rain = 0
KSE2 140448Z 15005KT 29/16 A3002 RMK A01 T02920164  RH  046%=      5-min Rain = 0
KSE2 140449Z 15005KT 29/16 A3002 RMK A01 T02910164  RH  046%=      5-min Rain = 0
KSE2 140450Z 14006KT 29/16 A3002 RMK A01 T02910164  RH  046%=      5-min Rain = 0
KSE2 140451Z 15006KT 29/16 A3002 RMK A01 T02910164  RH  046%=      5-min Rain = 0
KSE2 140452Z 15007KT 29/16 A3002 RMK A01 T02900164  RH  046%=      5-min Rain = 0
KSE2 140453Z 14008KT 29/17 A3002 RMK A01 T02910165  RH  046%=      5-min Rain = 0
KSE2 140454Z 14008KT 29/17 A3002 RMK A01 T02920165  RH  046%=      5-min Rain = 0
KSE2 140455Z 15008KT 29/17 A3002 RMK A01 T02930165  RH  046%=      5-min Rain = 0
KSE2 140456Z 14009KT 29/17 A3002 RMK A01 T02940166  RH  046%=      5-min Rain = 0
KSE2 140457Z 15009KT 29/17 A3002 RMK A01 T02940166  RH  046%=      5-min Rain = 0
KSE2 140458Z 14009KT 29/17 A3002 RMK A01 T02940167  RH  046%=      5-min Rain = 0
KSE2 140459Z 14009KT 30/17 A3002 RMK A01 T02950167  RH  046%=      5-min Rain = 0

Page generated in 0.0706 seconds.